<?xml version="1.0" encoding="UTF-8" standalone="no" ?>
<gpx xmlns="http://www.topografix.com/GPX/1/1" creator="MapSource 6.16.3" version="1.1" xmlns:xsi="http://www.w3.org/2001/XMLSchema-instance" xsi:schemaLocation="http://www.topografix.com/GPX/1/1 http://www.topografix.com/GPX/1/1/gpx.xsd">

  <metadata>
    <link href="http://www.garmin.com">
      <text>Garmin International</text>
    </link>
    <time>2012-02-14T18:03:14Z</time>
    <bounds maxlat="49.051817022264004" maxlon="6.893543964251876" minlat="49.037217004224658" minlon="6.846659034490585"/>
  </metadata>

  <trk>
    <name>2012-02-14 209320</name>
    <trkseg>
      <trkpt lat="49.04753596521914" lon="6.892064977437258">
        <ele>49.159999999999997</ele>
        <time>2012-02-14T07:51:47Z</time>
      </trkpt>
      <trkpt lat="49.047529008239508" lon="6.892063971608877">
        <ele>50.609999999999999</ele>
        <time>2012-02-14T07:52:05Z</time>
      </trkpt>
      <trkpt lat="49.047532025724649" lon="6.892001023516059">
        <ele>53.009999999999998</ele>
        <time>2012-02-14T07:52:29Z</time>
      </trkpt>
      <trkpt lat="49.047497995197773" lon="6.891915025189519">
        <ele>54.93</ele>
        <time>2012-02-14T07:52:36Z</time>
      </trkpt>
      <trkpt lat="49.047471005469561" lon="6.891808994114399">
        <ele>53.490000000000002</ele>
        <time>2012-02-14T07:52:46Z</time>
      </trkpt>
      <trkpt lat="49.047465976327658" lon="6.891395011916757">
        <ele>55.890000000000001</ele>
        <time>2012-02-14T07:53:08Z</time>
      </trkpt>
      <trkpt lat="49.047606037929654" lon="6.891027968376875">
        <ele>58.780000000000001</ele>
        <time>2012-02-14T07:53:28Z</time>
      </trkpt>
      <trkpt lat="49.047686001285911" lon="6.890884973108769">
        <ele>59.740000000000002</ele>
        <time>2012-02-14T07:53:34Z</time>
      </trkpt>
      <trkpt lat="49.047729000449181" lon="6.890775002539158">
        <ele>60.219999999999999</ele>
        <time>2012-02-14T07:53:44Z</time>
      </trkpt>
      <trkpt lat="49.047736963257194" lon="6.890762010589242">
        <ele>60.219999999999999</ele>
        <time>2012-02-14T07:53:45Z</time>
      </trkpt>
      <trkpt lat="49.047809969633818" lon="6.890595965087414">
        <ele>61.18</ele>
        <time>2012-02-14T07:53:53Z</time>
      </trkpt>
      <trkpt lat="49.047898985445499" lon="6.890420028939843">
        <ele>62.619999999999997</ele>
        <time>2012-02-14T07:54:05Z</time>
      </trkpt>
      <trkpt lat="49.047935027629137" lon="6.890287008136511">
        <ele>62.140000000000001</ele>
        <time>2012-02-14T07:54:11Z</time>
      </trkpt>
      <trkpt lat="49.047927986830473" lon="6.890185000374913">
        <ele>62.619999999999997</ele>
        <time>2012-02-14T07:54:15Z</time>
      </trkpt>
      <trkpt lat="49.047943996265531" lon="6.890067989006639">
        <ele>64.549999999999997</ele>
        <time>2012-02-14T07:54:20Z</time>
      </trkpt>
      <trkpt lat="49.047922035679221" lon="6.889914013445377">
        <ele>65.030000000000001</ele>
        <time>2012-02-14T07:54:27Z</time>
      </trkpt>
      <trkpt lat="49.047894962131977" lon="6.889717038720846">
        <ele>64.549999999999997</ele>
        <time>2012-02-14T07:54:35Z</time>
      </trkpt>
      <trkpt lat="49.047840982675552" lon="6.889466000720859">
        <ele>66.950000000000003</ele>
        <time>2012-02-14T07:54:46Z</time>
      </trkpt>
      <trkpt lat="49.047793038189411" lon="6.889198031276465">
        <ele>70.310000000000002</ele>
        <time>2012-02-14T07:54:59Z</time>
      </trkpt>
      <trkpt lat="49.047790020704269" lon="6.889183027669787">
        <ele>70.310000000000002</ele>
        <time>2012-02-14T07:55:00Z</time>
      </trkpt>
      <trkpt lat="49.047832014039159" lon="6.888970965519548">
        <ele>71.269999999999996</ele>
        <time>2012-02-14T07:55:12Z</time>
      </trkpt>
      <trkpt lat="49.047844000160694" lon="6.888915980234742">
        <ele>73.680000000000007</ele>
        <time>2012-02-14T07:55:15Z</time>
      </trkpt>
      <trkpt lat="49.047894962131977" lon="6.888723028823733">
        <ele>74.640000000000001</ele>
        <time>2012-02-14T07:55:26Z</time>
      </trkpt>
      <trkpt lat="49.047968974336982" lon="6.88846000470221">
        <ele>76.079999999999998</ele>
        <time>2012-02-14T07:55:36Z</time>
      </trkpt>
      <trkpt lat="49.047990012913942" lon="6.888402001932263">
        <ele>77.040000000000006</ele>
        <time>2012-02-14T07:55:43Z</time>
      </trkpt>
      <trkpt lat="49.048018008470535" lon="6.888296976685524">
        <ele>76.560000000000002</ele>
        <time>2012-02-14T07:55:48Z</time>
      </trkpt>
      <trkpt lat="49.048075005412102" lon="6.888151969760656">
        <ele>77.519999999999996</ele>
        <time>2012-02-14T07:55:53Z</time>
      </trkpt>
      <trkpt lat="49.048098977655172" lon="6.888087010011077">
        <ele>78</ele>
        <time>2012-02-14T07:55:57Z</time>
      </trkpt>
      <trkpt lat="49.048081040382385" lon="6.888017021119595">
        <ele>79.930000000000007</ele>
        <time>2012-02-14T07:56:02Z</time>
      </trkpt>
      <trkpt lat="49.048082968220115" lon="6.888001011684537">
        <ele>78.480000000000004</ele>
        <time>2012-02-14T07:56:03Z</time>
      </trkpt>
      <trkpt lat="49.048124961555004" lon="6.887807976454496">
        <ele>80.409999999999997</ele>
        <time>2012-02-14T07:56:10Z</time>
      </trkpt>
      <trkpt lat="49.048146000131965" lon="6.887718960642815">
        <ele>79.930000000000007</ele>
        <time>2012-02-14T07:56:15Z</time>
      </trkpt>
      <trkpt lat="49.048159997910261" lon="6.887681996449828">
        <ele>79.450000000000003</ele>
        <time>2012-02-14T07:56:17Z</time>
      </trkpt>
      <trkpt lat="49.048179024830461" lon="6.887615025043488">
        <ele>80.409999999999997</ele>
        <time>2012-02-14T07:56:21Z</time>
      </trkpt>
      <trkpt lat="49.048209032043815" lon="6.887531960383058">
        <ele>81.370000000000005</ele>
        <time>2012-02-14T07:56:25Z</time>
      </trkpt>
      <trkpt lat="49.048248007893562" lon="6.887114960700274">
        <ele>82.329999999999998</ele>
        <time>2012-02-14T07:56:44Z</time>
      </trkpt>
      <trkpt lat="49.048397960141301" lon="6.886900970712304">
        <ele>84.730000000000004</ele>
        <time>2012-02-14T07:56:59Z</time>
      </trkpt>
      <trkpt lat="49.048438025638461" lon="6.88686802983284">
        <ele>85.689999999999998</ele>
        <time>2012-02-14T07:57:02Z</time>
      </trkpt>
      <trkpt lat="49.048503991216421" lon="6.886826036497951">
        <ele>87.140000000000001</ele>
        <time>2012-02-14T07:57:07Z</time>
      </trkpt>
      <trkpt lat="49.048515977337956" lon="6.886820001527667">
        <ele>86.659999999999997</ele>
        <time>2012-02-14T07:57:08Z</time>
      </trkpt>
      <trkpt lat="49.048594012856483" lon="6.886726962402463">
        <ele>89.060000000000002</ele>
        <time>2012-02-14T07:57:16Z</time>
      </trkpt>
      <trkpt lat="49.048642963171005" lon="6.886620009317994">
        <ele>89.060000000000002</ele>
        <time>2012-02-14T07:57:23Z</time>
      </trkpt>
      <trkpt lat="49.048665007576346" lon="6.886577010154724">
        <ele>89.540000000000006</ele>
        <time>2012-02-14T07:57:26Z</time>
      </trkpt>
      <trkpt lat="49.048654027283192" lon="6.886477014049888">
        <ele>88.579999999999998</ele>
        <time>2012-02-14T07:57:30Z</time>
      </trkpt>
      <trkpt lat="49.048647992312908" lon="6.886404007673264">
        <ele>90.019999999999996</ele>
        <time>2012-02-14T07:57:34Z</time>
      </trkpt>
      <trkpt lat="49.048652015626431" lon="6.886381963267922">
        <ele>89.060000000000002</ele>
        <time>2012-02-14T07:57:36Z</time>
      </trkpt>
      <trkpt lat="49.048665007576346" lon="6.886247014626861">
        <ele>91.939999999999998</ele>
        <time>2012-02-14T07:57:44Z</time>
      </trkpt>
      <trkpt lat="49.04865100979805" lon="6.88613897189498">
        <ele>91.939999999999998</ele>
        <time>2012-02-14T07:57:51Z</time>
      </trkpt>
      <trkpt lat="49.048612033948302" lon="6.885807970538735">
        <ele>92.900000000000006</ele>
        <time>2012-02-14T07:58:04Z</time>
      </trkpt>
      <trkpt lat="49.048584038391709" lon="6.885500019416213">
        <ele>93.390000000000001</ele>
        <time>2012-02-14T07:58:18Z</time>
      </trkpt>
      <trkpt lat="49.048572974279523" lon="6.885284017771483">
        <ele>91.939999999999998</ele>
        <time>2012-02-14T07:58:29Z</time>
      </trkpt>
      <trkpt lat="49.048570040613413" lon="6.885221991688013">
        <ele>93.390000000000001</ele>
        <time>2012-02-14T07:58:32Z</time>
      </trkpt>
      <trkpt lat="49.048566017299891" lon="6.885156026110053">
        <ele>92.420000000000002</ele>
        <time>2012-02-14T07:58:36Z</time>
      </trkpt>
      <trkpt lat="49.048557970672846" lon="6.885071033611894">
        <ele>91.939999999999998</ele>
        <time>2012-02-14T07:58:40Z</time>
      </trkpt>
      <trkpt lat="49.048545984551311" lon="6.884967014193535">
        <ele>91.939999999999998</ele>
        <time>2012-02-14T07:58:45Z</time>
      </trkpt>
      <trkpt lat="49.048543972894549" lon="6.884759981185198">
        <ele>91.459999999999994</ele>
        <time>2012-02-14T07:58:54Z</time>
      </trkpt>
      <trkpt lat="49.048532992601395" lon="6.884653028100729">
        <ele>90.019999999999996</ele>
        <time>2012-02-14T07:58:58Z</time>
      </trkpt>
      <trkpt lat="49.048524023965001" lon="6.884554037824273">
        <ele>90.980000000000004</ele>
        <time>2012-02-14T07:59:02Z</time>
      </trkpt>
      <trkpt lat="49.048527963459492" lon="6.884507015347481">
        <ele>90.5</ele>
        <time>2012-02-14T07:59:04Z</time>
      </trkpt>
      <trkpt lat="49.048466021195054" lon="6.884233010932803">
        <ele>91.459999999999994</ele>
        <time>2012-02-14T07:59:17Z</time>
      </trkpt>
      <trkpt lat="49.048450011759996" lon="6.88416201621294">
        <ele>91.939999999999998</ele>
        <time>2012-02-14T07:59:21Z</time>
      </trkpt>
      <trkpt lat="49.048325959593058" lon="6.884002005681396">
        <ele>91.939999999999998</ele>
        <time>2012-02-14T07:59:31Z</time>
      </trkpt>
      <trkpt lat="49.048268962651491" lon="6.883932016789913">
        <ele>91.939999999999998</ele>
        <time>2012-02-14T07:59:37Z</time>
      </trkpt>
      <trkpt lat="49.048265023157001" lon="6.88386001624167">
        <ele>92.900000000000006</ele>
        <time>2012-02-14T07:59:41Z</time>
      </trkpt>
      <trkpt lat="49.048273991793394" lon="6.883802013471723">
        <ele>93.390000000000001</ele>
        <time>2012-02-14T07:59:44Z</time>
      </trkpt>
      <trkpt lat="49.048305004835129" lon="6.883656000718474">
        <ele>92.900000000000006</ele>
        <time>2012-02-14T07:59:52Z</time>
      </trkpt>
      <trkpt lat="49.048315985128284" lon="6.883609984070063">
        <ele>94.349999999999994</ele>
        <time>2012-02-14T07:59:54Z</time>
      </trkpt>
      <trkpt lat="49.048311961814761" lon="6.883548963814974">
        <ele>94.349999999999994</ele>
        <time>2012-02-14T07:59:57Z</time>
      </trkpt>
      <trkpt lat="49.048312967643142" lon="6.88347402960062">
        <ele>94.829999999999998</ele>
        <time>2012-02-14T08:00:01Z</time>
      </trkpt>
      <trkpt lat="49.048339035362005" lon="6.883279988542199">
        <ele>94.829999999999998</ele>
        <time>2012-02-14T08:00:10Z</time>
      </trkpt>
      <trkpt lat="49.048386979848146" lon="6.883012019097805">
        <ele>97.230000000000004</ele>
        <time>2012-02-14T08:00:21Z</time>
      </trkpt>
      <trkpt lat="49.048395026475191" lon="6.882967008277774">
        <ele>96.75</ele>
        <time>2012-02-14T08:00:23Z</time>
      </trkpt>
      <trkpt lat="49.048398965969682" lon="6.882919985800982">
        <ele>97.230000000000004</ele>
        <time>2012-02-14T08:00:25Z</time>
      </trkpt>
      <trkpt lat="49.048407012596726" lon="6.882827030494809">
        <ele>98.189999999999998</ele>
        <time>2012-02-14T08:00:30Z</time>
      </trkpt>
      <trkpt lat="49.048420004546642" lon="6.88274597749114">
        <ele>98.670000000000002</ele>
        <time>2012-02-14T08:00:34Z</time>
      </trkpt>
      <trkpt lat="49.048437019810081" lon="6.882531987503171">
        <ele>101.56</ele>
        <time>2012-02-14T08:00:44Z</time>
      </trkpt>
      <trkpt lat="49.048468032851815" lon="6.88240198418498">
        <ele>101.56</ele>
        <time>2012-02-14T08:00:50Z</time>
      </trkpt>
      <trkpt lat="49.048473984003067" lon="6.882326966151595">
        <ele>103.48</ele>
        <time>2012-02-14T08:00:53Z</time>
      </trkpt>
      <trkpt lat="49.048475995659828" lon="6.882274998351932">
        <ele>103.48</ele>
        <time>2012-02-14T08:00:55Z</time>
      </trkpt>
      <trkpt lat="49.048492005094886" lon="6.882171984761953">
        <ele>103.48</ele>
        <time>2012-02-14T08:01:00Z</time>
      </trkpt>
      <trkpt lat="49.048517988994718" lon="6.882006023079157">
        <ele>105.40000000000001</ele>
        <time>2012-02-14T08:01:08Z</time>
      </trkpt>
      <trkpt lat="49.048561993986368" lon="6.881879037246108">
        <ele>105.88</ele>
        <time>2012-02-14T08:01:21Z</time>
      </trkpt>
      <trkpt lat="49.048575991764665" lon="6.881835032254458">
        <ele>105.88</ele>
        <time>2012-02-14T08:01:24Z</time>
      </trkpt>
      <trkpt lat="49.048584038391709" lon="6.881534038111568">
        <ele>107.81</ele>
        <time>2012-02-14T08:01:37Z</time>
      </trkpt>
      <trkpt lat="49.048555037006736" lon="6.881422977894545">
        <ele>108.29000000000001</ele>
        <time>2012-02-14T08:01:42Z</time>
      </trkpt>
      <trkpt lat="49.048483958467841" lon="6.881206976249814">
        <ele>107.81</ele>
        <time>2012-02-14T08:01:53Z</time>
      </trkpt>
      <trkpt lat="49.048443976789713" lon="6.880958033725619">
        <ele>107.81</ele>
        <time>2012-02-14T08:02:05Z</time>
      </trkpt>
      <trkpt lat="49.048412041738629" lon="6.880714958533645">
        <ele>107.81</ele>
        <time>2012-02-14T08:02:17Z</time>
      </trkpt>
      <trkpt lat="49.048410030081868" lon="6.880700038745999">
        <ele>109.25</ele>
        <time>2012-02-14T08:02:18Z</time>
      </trkpt>
      <trkpt lat="49.048345992341638" lon="6.880414970219135">
        <ele>108.77</ele>
        <time>2012-02-14T08:02:33Z</time>
      </trkpt>
      <trkpt lat="49.048277009278536" lon="6.880137026309967">
        <ele>108.77</ele>
        <time>2012-02-14T08:02:47Z</time>
      </trkpt>
      <trkpt lat="49.048279020935297" lon="6.880077011883259">
        <ele>108.77</ele>
        <time>2012-02-14T08:02:51Z</time>
      </trkpt>
      <trkpt lat="49.048271980136633" lon="6.879983972758055">
        <ele>107.81</ele>
        <time>2012-02-14T08:02:55Z</time>
      </trkpt>
      <trkpt lat="49.048247002065182" lon="6.879828991368413">
        <ele>109.73</ele>
        <time>2012-02-14T08:03:02Z</time>
      </trkpt>
      <trkpt lat="49.048241972923279" lon="6.879730001091957">
        <ele>110.20999999999999</ele>
        <time>2012-02-14T08:03:07Z</time>
      </trkpt>
      <trkpt lat="49.048228980973363" lon="6.879527997225523">
        <ele>108.77</ele>
        <time>2012-02-14T08:03:19Z</time>
      </trkpt>
      <trkpt lat="49.048257982358336" lon="6.879130024462938">
        <ele>110.20999999999999</ele>
        <time>2012-02-14T08:03:36Z</time>
      </trkpt>
      <trkpt lat="49.048239961266518" lon="6.878803968429565">
        <ele>112.13</ele>
        <time>2012-02-14T08:03:52Z</time>
      </trkpt>
      <trkpt lat="49.048204002901912" lon="6.878561982885003">
        <ele>111.17</ele>
        <time>2012-02-14T08:04:08Z</time>
      </trkpt>
      <trkpt lat="49.048191010951996" lon="6.878526024520397">
        <ele>112.61</ele>
        <time>2012-02-14T08:04:13Z</time>
      </trkpt>
      <trkpt lat="49.048100989311934" lon="6.878524012863636">
        <ele>111.65000000000001</ele>
        <time>2012-02-14T08:04:19Z</time>
      </trkpt>
      <trkpt lat="49.047890016809106" lon="6.878440026193857">
        <ele>112.13</ele>
        <time>2012-02-14T08:04:34Z</time>
      </trkpt>
      <trkpt lat="49.047754984349012" lon="6.878418987616897">
        <ele>110.69</ele>
        <time>2012-02-14T08:04:41Z</time>
      </trkpt>
      <trkpt lat="49.047663034871221" lon="6.878401972353458">
        <ele>111.17</ele>
        <time>2012-02-14T08:04:48Z</time>
      </trkpt>
      <trkpt lat="49.047486009076238" lon="6.878353022038937">
        <ele>109.73</ele>
        <time>2012-02-14T08:04:58Z</time>
      </trkpt>
      <trkpt lat="49.047425994649529" lon="6.878297030925751">
        <ele>108.77</ele>
        <time>2012-02-14T08:05:05Z</time>
      </trkpt>
      <trkpt lat="49.047226002439857" lon="6.878270041197538">
        <ele>109.25</ele>
        <time>2012-02-14T08:05:18Z</time>
      </trkpt>
      <trkpt lat="49.04716900549829" lon="6.878243973478675">
        <ele>107.31999999999999</ele>
        <time>2012-02-14T08:05:23Z</time>
      </trkpt>
      <trkpt lat="49.046955015510321" lon="6.878195023164153">
        <ele>106.84</ele>
        <time>2012-02-14T08:05:38Z</time>
      </trkpt>
      <trkpt lat="49.046941017732024" lon="6.87818898819387">
        <ele>105.88</ele>
        <time>2012-02-14T08:05:39Z</time>
      </trkpt>
      <trkpt lat="49.04682400636375" lon="6.878130985423923">
        <ele>104.44</ele>
        <time>2012-02-14T08:05:47Z</time>
      </trkpt>
      <trkpt lat="49.046723004430532" lon="6.878105001524091">
        <ele>103.48</ele>
        <time>2012-02-14T08:05:54Z</time>
      </trkpt>
      <trkpt lat="49.046694003045559" lon="6.878120005130768">
        <ele>103</ele>
        <time>2012-02-14T08:05:56Z</time>
      </trkpt>
      <trkpt lat="49.046683022752404" lon="6.878136014565826">
        <ele>103.95999999999999</ele>
        <time>2012-02-14T08:05:58Z</time>
      </trkpt>
      <trkpt lat="49.046501973643899" lon="6.878117993474007">
        <ele>102.04000000000001</ele>
        <time>2012-02-14T08:06:12Z</time>
      </trkpt>
      <trkpt lat="49.046367025002837" lon="6.878070970997214">
        <ele>103</ele>
        <time>2012-02-14T08:06:24Z</time>
      </trkpt>
      <trkpt lat="49.046239033341408" lon="6.878024032339454">
        <ele>102.52</ele>
        <time>2012-02-14T08:06:35Z</time>
      </trkpt>
      <trkpt lat="49.046254958957434" lon="6.877926969900727">
        <ele>103</ele>
        <time>2012-02-14T08:06:42Z</time>
      </trkpt>
      <trkpt lat="49.046213971450925" lon="6.877632010728121">
        <ele>104.92</ele>
        <time>2012-02-14T08:06:59Z</time>
      </trkpt>
      <trkpt lat="49.046215983107686" lon="6.877619018778205">
        <ele>104.92</ele>
        <time>2012-02-14T08:07:00Z</time>
      </trkpt>
      <trkpt lat="49.04622302390635" lon="6.877280976623297">
        <ele>106.36</ele>
        <time>2012-02-14T08:07:21Z</time>
      </trkpt>
      <trkpt lat="49.046248001977801" lon="6.87702901661396">
        <ele>107.81</ele>
        <time>2012-02-14T08:07:33Z</time>
      </trkpt>
      <trkpt lat="49.046310028061271" lon="6.876889038830996">
        <ele>109.25</ele>
        <time>2012-02-14T08:07:41Z</time>
      </trkpt>
      <trkpt lat="49.046360990032554" lon="6.876673037186265">
        <ele>110.20999999999999</ele>
        <time>2012-02-14T08:07:51Z</time>
      </trkpt>
      <trkpt lat="49.046384962275624" lon="6.87662199139595">
        <ele>108.77</ele>
        <time>2012-02-14T08:07:54Z</time>
      </trkpt>
      <trkpt lat="49.04639502055943" lon="6.876585027202964">
        <ele>109.73</ele>
        <time>2012-02-14T08:07:56Z</time>
      </trkpt>
      <trkpt lat="49.046529969200492" lon="6.876396015286446">
        <ele>109.73</ele>
        <time>2012-02-14T08:08:10Z</time>
      </trkpt>
      <trkpt lat="49.046616973355412" lon="6.876371037214994">
        <ele>109.73</ele>
        <time>2012-02-14T08:08:17Z</time>
      </trkpt>
      <trkpt lat="49.04665200971067" lon="6.876339018344879">
        <ele>111.17</ele>
        <time>2012-02-14T08:08:20Z</time>
      </trkpt>
      <trkpt lat="49.046747982501984" lon="6.876305993646383">
        <ele>110.69</ele>
        <time>2012-02-14T08:08:31Z</time>
      </trkpt>
      <trkpt lat="49.046888966113329" lon="6.876202980056405">
        <ele>111.65000000000001</ele>
        <time>2012-02-14T08:08:45Z</time>
      </trkpt>
      <trkpt lat="49.046967001631856" lon="6.876223012804985">
        <ele>110.69</ele>
        <time>2012-02-14T08:08:50Z</time>
      </trkpt>
      <trkpt lat="49.047011006623507" lon="6.876281015574932">
        <ele>111.17</ele>
        <time>2012-02-14T08:08:53Z</time>
      </trkpt>
      <trkpt lat="49.047039002180099" lon="6.876310016959906">
        <ele>111.65000000000001</ele>
        <time>2012-02-14T08:08:55Z</time>
      </trkpt>
      <trkpt lat="49.04706004075706" lon="6.876313034445047">
        <ele>112.13</ele>
        <time>2012-02-14T08:08:57Z</time>
      </trkpt>
      <trkpt lat="49.047261960804462" lon="6.876287972554565">
        <ele>111.17</ele>
        <time>2012-02-14T08:09:12Z</time>
      </trkpt>
      <trkpt lat="49.047292973846197" lon="6.876279003918171">
        <ele>111.17</ele>
        <time>2012-02-14T08:09:14Z</time>
      </trkpt>
      <trkpt lat="49.047402022406459" lon="6.876289984211326">
        <ele>111.17</ele>
        <time>2012-02-14T08:09:21Z</time>
      </trkpt>
      <trkpt lat="49.047566978260875" lon="6.87619199976325">
        <ele>111.65000000000001</ele>
        <time>2012-02-14T08:09:34Z</time>
      </trkpt>
      <trkpt lat="49.047489026561379" lon="6.876071970909834">
        <ele>112.61</ele>
        <time>2012-02-14T08:09:49Z</time>
      </trkpt>
      <trkpt lat="49.047344019636512" lon="6.875979015603662">
        <ele>112.61</ele>
        <time>2012-02-14T08:09:59Z</time>
      </trkpt>
      <trkpt lat="49.047305965796113" lon="6.875957977026701">
        <ele>114.05</ele>
        <time>2012-02-14T08:10:02Z</time>
      </trkpt>
      <trkpt lat="49.047106979414821" lon="6.875856975093484">
        <ele>113.56999999999999</ele>
        <time>2012-02-14T08:10:17Z</time>
      </trkpt>
      <trkpt lat="49.047027016058564" lon="6.875661006197333">
        <ele>112.61</ele>
        <time>2012-02-14T08:10:27Z</time>
      </trkpt>
      <trkpt lat="49.04701704159379" lon="6.875446010380983">
        <ele>114.05</ele>
        <time>2012-02-14T08:10:39Z</time>
      </trkpt>
      <trkpt lat="49.046938000246882" lon="6.875197989866138">
        <ele>113.56999999999999</ele>
        <time>2012-02-14T08:10:54Z</time>
      </trkpt>
      <trkpt lat="49.046902963891625" lon="6.875108974054456">
        <ele>114.05</ele>
        <time>2012-02-14T08:10:58Z</time>
      </trkpt>
      <trkpt lat="49.046885026618838" lon="6.874844022095203">
        <ele>115.98</ele>
        <time>2012-02-14T08:11:10Z</time>
      </trkpt>
      <trkpt lat="49.046895001083612" lon="6.874603964388371">
        <ele>116.45999999999999</ele>
        <time>2012-02-14T08:11:22Z</time>
      </trkpt>
      <trkpt lat="49.046955015510321" lon="6.874400032684207">
        <ele>117.90000000000001</ele>
        <time>2012-02-14T08:11:33Z</time>
      </trkpt>
      <trkpt lat="49.046972030773759" lon="6.874333983287215">
        <ele>116.94</ele>
        <time>2012-02-14T08:11:36Z</time>
      </trkpt>
      <trkpt lat="49.046979993581772" lon="6.87425896525383">
        <ele>117.42</ele>
        <time>2012-02-14T08:11:39Z</time>
      </trkpt>
      <trkpt lat="49.046974964439869" lon="6.874206997454166">
        <ele>117.42</ele>
        <time>2012-02-14T08:11:42Z</time>
      </trkpt>
      <trkpt lat="49.046999020501971" lon="6.874030977487564">
        <ele>117.90000000000001</ele>
        <time>2012-02-14T08:11:50Z</time>
      </trkpt>
      <trkpt lat="49.047007989138365" lon="6.873964006081224">
        <ele>117.42</ele>
        <time>2012-02-14T08:11:53Z</time>
      </trkpt>
      <trkpt lat="49.04710303992033" lon="6.873695030808449">
        <ele>119.81999999999999</ele>
        <time>2012-02-14T08:12:06Z</time>
      </trkpt>
      <trkpt lat="49.047167999669909" lon="6.873506018891931">
        <ele>120.3</ele>
        <time>2012-02-14T08:12:17Z</time>
      </trkpt>
      <trkpt lat="49.047210998833179" lon="6.873348020017147">
        <ele>119.81999999999999</ele>
        <time>2012-02-14T08:12:24Z</time>
      </trkpt>
      <trkpt lat="49.047241006046534" lon="6.873268978670239">
        <ele>119.81999999999999</ele>
        <time>2012-02-14T08:12:28Z</time>
      </trkpt>
      <trkpt lat="49.047253997996449" lon="6.873236037790775">
        <ele>120.3</ele>
        <time>2012-02-14T08:12:30Z</time>
      </trkpt>
      <trkpt lat="49.047271013259888" lon="6.873110979795456">
        <ele>120.3</ele>
        <time>2012-02-14T08:12:36Z</time>
      </trkpt>
      <trkpt lat="49.047308983281255" lon="6.872949963435531">
        <ele>120.3</ele>
        <time>2012-02-14T08:12:45Z</time>
      </trkpt>
      <trkpt lat="49.047319963574409" lon="6.872868994250894">
        <ele>120.78</ele>
        <time>2012-02-14T08:12:49Z</time>
      </trkpt>
      <trkpt lat="49.047346031293273" lon="6.872802022844553">
        <ele>120.3</ele>
        <time>2012-02-14T08:12:53Z</time>
      </trkpt>
      <trkpt lat="49.047394981607795" lon="6.872584009543061">
        <ele>120.78</ele>
        <time>2012-02-14T08:13:05Z</time>
      </trkpt>
      <trkpt lat="49.047534037381411" lon="6.872405977919698">
        <ele>120.3</ele>
        <time>2012-02-14T08:13:21Z</time>
      </trkpt>
      <trkpt lat="49.047654988244176" lon="6.872275974601507">
        <ele>121.26000000000001</ele>
        <time>2012-02-14T08:13:33Z</time>
      </trkpt>
      <trkpt lat="49.047820027917624" lon="6.872051004320383">
        <ele>122.22</ele>
        <time>2012-02-14T08:13:49Z</time>
      </trkpt>
      <trkpt lat="49.047961011528969" lon="6.871965005993843">
        <ele>123.67</ele>
        <time>2012-02-14T08:14:03Z</time>
      </trkpt>
      <trkpt lat="49.04807198792696" lon="6.871849000453949">
        <ele>124.63</ele>
        <time>2012-02-14T08:14:12Z</time>
      </trkpt>
      <trkpt lat="49.048181036487222" lon="6.871740035712719">
        <ele>125.11</ele>
        <time>2012-02-14T08:14:21Z</time>
      </trkpt>
      <trkpt lat="49.048279020935297" lon="6.871626041829586">
        <ele>125.59</ele>
        <time>2012-02-14T08:14:31Z</time>
      </trkpt>
      <trkpt lat="49.048353033140302" lon="6.871554041281343">
        <ele>125.11</ele>
        <time>2012-02-14T08:14:37Z</time>
      </trkpt>
      <trkpt lat="49.048434002324939" lon="6.87142001464963">
        <ele>126.55</ele>
        <time>2012-02-14T08:14:46Z</time>
      </trkpt>
      <trkpt lat="49.048487981781363" lon="6.87137701548636">
        <ele>127.51000000000001</ele>
        <time>2012-02-14T08:14:52Z</time>
      </trkpt>
      <trkpt lat="49.048527041450143" lon="6.871349019929767">
        <ele>126.06999999999999</ele>
        <time>2012-02-14T08:14:55Z</time>
      </trkpt>
      <trkpt lat="49.048555037006736" lon="6.87140098772943">
        <ele>126.55</ele>
        <time>2012-02-14T08:14:59Z</time>
      </trkpt>
      <trkpt lat="49.048572974279523" lon="6.8714439868927">
        <ele>127.98999999999999</ele>
        <time>2012-02-14T08:15:01Z</time>
      </trkpt>
      <trkpt lat="49.048741031438112" lon="6.871538031846285">
        <ele>128.94999999999999</ele>
        <time>2012-02-14T08:15:16Z</time>
      </trkpt>
      <trkpt lat="49.048761986196041" lon="6.871536020189524">
        <ele>129.91999999999999</ele>
        <time>2012-02-14T08:15:18Z</time>
      </trkpt>
      <trkpt lat="49.048828035593033" lon="6.871515987440944">
        <ele>129.43000000000001</ele>
        <time>2012-02-14T08:15:23Z</time>
      </trkpt>
      <trkpt lat="49.048862988129258" lon="6.871505007147789">
        <ele>129.91999999999999</ele>
        <time>2012-02-14T08:15:26Z</time>
      </trkpt>
      <trkpt lat="49.049043031409383" lon="6.871458990499377">
        <ele>129.91999999999999</ele>
        <time>2012-02-14T08:15:39Z</time>
      </trkpt>
      <trkpt lat="49.04914797283709" lon="6.871452033519745">
        <ele>129.43000000000001</ele>
        <time>2012-02-14T08:15:47Z</time>
      </trkpt>
      <trkpt lat="49.049318041652441" lon="6.871494026854634">
        <ele>129.43000000000001</ele>
        <time>2012-02-14T08:16:03Z</time>
      </trkpt>
      <trkpt lat="49.049466988071799" lon="6.871512969955802">
        <ele>128.94999999999999</ele>
        <time>2012-02-14T08:16:19Z</time>
      </trkpt>
      <trkpt lat="49.049693970009685" lon="6.871538031846285">
        <ele>129.43000000000001</ele>
        <time>2012-02-14T08:16:41Z</time>
      </trkpt>
      <trkpt lat="49.049708973616362" lon="6.871539959684014">
        <ele>130.40000000000001</ele>
        <time>2012-02-14T08:16:42Z</time>
      </trkpt>
      <trkpt lat="49.04983201995492" lon="6.871520010754466">
        <ele>130.40000000000001</ele>
        <time>2012-02-14T08:16:53Z</time>
      </trkpt>
      <trkpt lat="49.050081968307495" lon="6.871459996327758">
        <ele>130.88</ele>
        <time>2012-02-14T08:17:11Z</time>
      </trkpt>
      <trkpt lat="49.050154974684119" lon="6.871448010206223">
        <ele>130.40000000000001</ele>
        <time>2012-02-14T08:17:17Z</time>
      </trkpt>
      <trkpt lat="49.050357984378934" lon="6.871424959972501">
        <ele>129.91999999999999</ele>
        <time>2012-02-14T08:17:31Z</time>
      </trkpt>
      <trkpt lat="49.050581026822329" lon="6.871391013264656">
        <ele>130.40000000000001</ele>
        <time>2012-02-14T08:17:48Z</time>
      </trkpt>
      <trkpt lat="49.050621008500457" lon="6.87135698273778">
        <ele>130.88</ele>
        <time>2012-02-14T08:17:52Z</time>
      </trkpt>
      <trkpt lat="49.050775989890099" lon="6.871315995231271">
        <ele>130.88</ele>
        <time>2012-02-14T08:18:06Z</time>
      </trkpt>
      <trkpt lat="49.051021998748183" lon="6.871150033548474">
        <ele>132.31999999999999</ele>
        <time>2012-02-14T08:18:28Z</time>
      </trkpt>
      <trkpt lat="49.051329027861357" lon="6.871036039665341">
        <ele>131.84</ele>
        <time>2012-02-14T08:18:51Z</time>
      </trkpt>
      <trkpt lat="49.051382001489401" lon="6.870998991653323">
        <ele>131.84</ele>
        <time>2012-02-14T08:18:55Z</time>
      </trkpt>
      <trkpt lat="49.051520973443985" lon="6.870892960578203">
        <ele>133.75999999999999</ele>
        <time>2012-02-14T08:19:06Z</time>
      </trkpt>
      <trkpt lat="49.051668997853994" lon="6.870878962799907">
        <ele>134.24000000000001</ele>
        <time>2012-02-14T08:19:22Z</time>
      </trkpt>
      <trkpt lat="49.051790032535791" lon="6.87073496170342">
        <ele>134.24000000000001</ele>
        <time>2012-02-14T08:19:34Z</time>
      </trkpt>
      <trkpt lat="49.051817022264004" lon="6.870624991133809">
        <ele>133.75999999999999</ele>
        <time>2012-02-14T08:19:47Z</time>
      </trkpt>
      <trkpt lat="49.051763964816928" lon="6.870529018342495">
        <ele>134.24000000000001</ele>
        <time>2012-02-14T08:19:58Z</time>
      </trkpt>
      <trkpt lat="49.051695987582207" lon="6.870462968945503">
        <ele>135.19999999999999</ele>
        <time>2012-02-14T08:20:05Z</time>
      </trkpt>
      <trkpt lat="49.051592973992229" lon="6.870243027806282">
        <ele>135.19999999999999</ele>
        <time>2012-02-14T08:20:24Z</time>
      </trkpt>
      <trkpt lat="49.051567995920777" lon="6.870169015601277">
        <ele>136.16</ele>
        <time>2012-02-14T08:20:33Z</time>
      </trkpt>
      <trkpt lat="49.051563972607255" lon="6.870097015053034">
        <ele>136.63999999999999</ele>
        <time>2012-02-14T08:20:37Z</time>
      </trkpt>
      <trkpt lat="49.051560033112764" lon="6.869824016466737">
        <ele>136.63999999999999</ele>
        <time>2012-02-14T08:20:50Z</time>
      </trkpt>
      <trkpt lat="49.051502030342817" lon="6.869393019005656">
        <ele>140.00999999999999</ele>
        <time>2012-02-14T08:21:10Z</time>
      </trkpt>
      <trkpt lat="49.051449978724122" lon="6.869006026536226">
        <ele>142.41</ele>
        <time>2012-02-14T08:21:29Z</time>
      </trkpt>
      <trkpt lat="49.051420977339149" lon="6.868634959682822">
        <ele>144.81999999999999</ele>
        <time>2012-02-14T08:21:47Z</time>
      </trkpt>
      <trkpt lat="49.051399016752839" lon="6.868345029652119">
        <ele>146.25999999999999</ele>
        <time>2012-02-14T08:22:03Z</time>
      </trkpt>
      <trkpt lat="49.051378984004259" lon="6.868238998576999">
        <ele>148.18000000000001</ele>
        <time>2012-02-14T08:22:23Z</time>
      </trkpt>
      <trkpt lat="49.051378984004259" lon="6.868237992748618">
        <ele>151.06</ele>
        <time>2012-02-14T08:22:59Z</time>
      </trkpt>
      <trkpt lat="49.051411002874374" lon="6.868292978033423">
        <ele>154.43000000000001</ele>
        <time>2012-02-14T08:24:09Z</time>
      </trkpt>
      <trkpt lat="49.051448972895741" lon="6.868217960000038">
        <ele>156.34999999999999</ele>
        <time>2012-02-14T08:24:38Z</time>
      </trkpt>
      <trkpt lat="49.051432963460684" lon="6.868041018024087">
        <ele>157.31</ele>
        <time>2012-02-14T08:24:48Z</time>
      </trkpt>
      <trkpt lat="49.051416032016277" lon="6.867868015542626">
        <ele>158.27000000000001</ele>
        <time>2012-02-14T08:24:57Z</time>
      </trkpt>
      <trkpt lat="49.051420977339149" lon="6.867628963664174">
        <ele>158.27000000000001</ele>
        <time>2012-02-14T08:25:08Z</time>
      </trkpt>
      <trkpt lat="49.051346965134144" lon="6.867519998922944">
        <ele>158.75</ele>
        <time>2012-02-14T08:25:19Z</time>
      </trkpt>
      <trkpt lat="49.051356017589569" lon="6.867306008934975">
        <ele>160.68000000000001</ele>
        <time>2012-02-14T08:25:30Z</time>
      </trkpt>
      <trkpt lat="49.051339002326131" lon="6.866981964558363">
        <ele>161.63999999999999</ele>
        <time>2012-02-14T08:25:46Z</time>
      </trkpt>
      <trkpt lat="49.051339002326131" lon="6.86690803617239">
        <ele>161.63999999999999</ele>
        <time>2012-02-14T08:25:50Z</time>
      </trkpt>
      <trkpt lat="49.051307989284396" lon="6.866715000942349">
        <ele>162.59999999999999</ele>
        <time>2012-02-14T08:26:00Z</time>
      </trkpt>
      <trkpt lat="49.051310000941157" lon="6.866660015657544">
        <ele>163.08000000000001</ele>
        <time>2012-02-14T08:26:02Z</time>
      </trkpt>
      <trkpt lat="49.051296003162861" lon="6.866278974339366">
        <ele>165.47999999999999</ele>
        <time>2012-02-14T08:26:18Z</time>
      </trkpt>
      <trkpt lat="49.051312012597919" lon="6.866204962134361">
        <ele>165.96000000000001</ele>
        <time>2012-02-14T08:26:22Z</time>
      </trkpt>
      <trkpt lat="49.05131402425468" lon="6.866039000451565">
        <ele>166.93000000000001</ele>
        <time>2012-02-14T08:26:31Z</time>
      </trkpt>
      <trkpt lat="49.051304971799254" lon="6.866003964096308">
        <ele>166.93000000000001</ele>
        <time>2012-02-14T08:26:33Z</time>
      </trkpt>
      <trkpt lat="49.051289968192577" lon="6.86570598743856">
        <ele>167.88999999999999</ele>
        <time>2012-02-14T08:26:48Z</time>
      </trkpt>
      <trkpt lat="49.051253003999591" lon="6.865600040182471">
        <ele>168.84999999999999</ele>
        <time>2012-02-14T08:26:52Z</time>
      </trkpt>
      <trkpt lat="49.051247974857688" lon="6.865257974714041">
        <ele>170.28999999999999</ele>
        <time>2012-02-14T08:27:08Z</time>
      </trkpt>
      <trkpt lat="49.051249986514449" lon="6.865225033834577">
        <ele>169.81</ele>
        <time>2012-02-14T08:27:10Z</time>
      </trkpt>
      <trkpt lat="49.051202964037657" lon="6.864944994449616">
        <ele>170.77000000000001</ele>
        <time>2012-02-14T08:27:24Z</time>
      </trkpt>
      <trkpt lat="49.051154013723135" lon="6.8644829839468">
        <ele>171.72999999999999</ele>
        <time>2012-02-14T08:27:47Z</time>
      </trkpt>
      <trkpt lat="49.051110008731484" lon="6.864112000912428">
        <ele>174.13999999999999</ele>
        <time>2012-02-14T08:28:04Z</time>
      </trkpt>
      <trkpt lat="49.051105985417962" lon="6.864090962335467">
        <ele>174.62</ele>
        <time>2012-02-14T08:28:05Z</time>
      </trkpt>
      <trkpt lat="49.051109002903104" lon="6.863702964037657">
        <ele>176.53999999999999</ele>
        <time>2012-02-14T08:28:23Z</time>
      </trkpt>
      <trkpt lat="49.05105602927506" lon="6.86342803761363">
        <ele>176.53999999999999</ele>
        <time>2012-02-14T08:28:35Z</time>
      </trkpt>
      <trkpt lat="49.051030967384577" lon="6.863382020965219">
        <ele>177.02000000000001</ele>
        <time>2012-02-14T08:28:39Z</time>
      </trkpt>
      <trkpt lat="49.050985034555197" lon="6.86321304179728">
        <ele>178.46000000000001</ele>
        <time>2012-02-14T08:28:47Z</time>
      </trkpt>
      <trkpt lat="49.050974976271391" lon="6.86308697797358">
        <ele>178.46000000000001</ele>
        <time>2012-02-14T08:28:58Z</time>
      </trkpt>
      <trkpt lat="49.050914961844683" lon="6.862815991044045">
        <ele>178.46000000000001</ele>
        <time>2012-02-14T08:29:11Z</time>
      </trkpt>
      <trkpt lat="49.05082100071013" lon="6.862623039633036">
        <ele>177.97999999999999</ele>
        <time>2012-02-14T08:29:23Z</time>
      </trkpt>
      <trkpt lat="49.050728967413306" lon="6.862393040210009">
        <ele>177.5</ele>
        <time>2012-02-14T08:29:37Z</time>
      </trkpt>
      <trkpt lat="49.050635006278753" lon="6.862064972519875">
        <ele>178.46000000000001</ele>
        <time>2012-02-14T08:29:54Z</time>
      </trkpt>
      <trkpt lat="49.050544984638691" lon="6.861659958958626">
        <ele>178.94</ele>
        <time>2012-02-14T08:30:14Z</time>
      </trkpt>
      <trkpt lat="49.050527969375253" lon="6.86155803501606">
        <ele>179.90000000000001</ele>
        <time>2012-02-14T08:30:19Z</time>
      </trkpt>
      <trkpt lat="49.050467032939196" lon="6.861124020069838">
        <ele>180.38</ele>
        <time>2012-02-14T08:30:42Z</time>
      </trkpt>
      <trkpt lat="49.050408024340868" lon="6.860656980425119">
        <ele>183.27000000000001</ele>
        <time>2012-02-14T08:31:05Z</time>
      </trkpt>
      <trkpt lat="49.05037097632885" lon="6.860226988792419">
        <ele>184.22999999999999</ele>
        <time>2012-02-14T08:31:28Z</time>
      </trkpt>
      <trkpt lat="49.05030601657927" lon="6.859769001603127">
        <ele>184.71000000000001</ele>
        <time>2012-02-14T08:31:52Z</time>
      </trkpt>
      <trkpt lat="49.050240973010659" lon="6.859276983886957">
        <ele>186.63</ele>
        <time>2012-02-14T08:32:18Z</time>
      </trkpt>
      <trkpt lat="49.050212977454066" lon="6.859025023877621">
        <ele>187.59</ele>
        <time>2012-02-14T08:32:32Z</time>
      </trkpt>
      <trkpt lat="49.050151035189629" lon="6.858671978116036">
        <ele>189.52000000000001</ele>
        <time>2012-02-14T08:32:51Z</time>
      </trkpt>
      <trkpt lat="49.050051961094141" lon="6.858277022838593">
        <ele>188.56</ele>
        <time>2012-02-14T08:33:12Z</time>
      </trkpt>
      <trkpt lat="49.049903014674783" lon="6.857836972922087">
        <ele>188.56</ele>
        <time>2012-02-14T08:33:37Z</time>
      </trkpt>
      <trkpt lat="49.049895973876119" lon="6.857817023992539">
        <ele>188.56</ele>
        <time>2012-02-14T08:33:38Z</time>
      </trkpt>
      <trkpt lat="49.049797989428043" lon="6.857447968795896">
        <ele>188.56</ele>
        <time>2012-02-14T08:33:58Z</time>
      </trkpt>
      <trkpt lat="49.049780974164605" lon="6.857415027916431">
        <ele>190</ele>
        <time>2012-02-14T08:34:00Z</time>
      </trkpt>
      <trkpt lat="49.049672009423375" lon="6.857037004083395">
        <ele>189.03999999999999</ele>
        <time>2012-02-14T08:34:21Z</time>
      </trkpt>
      <trkpt lat="49.049579976126552" lon="6.856592008844018">
        <ele>188.56</ele>
        <time>2012-02-14T08:34:47Z</time>
      </trkpt>
      <trkpt lat="49.04949196614325" lon="6.856262013316155">
        <ele>190.47999999999999</ele>
        <time>2012-02-14T08:35:07Z</time>
      </trkpt>
      <trkpt lat="49.049439998343587" lon="6.856010975316167">
        <ele>191.91999999999999</ele>
        <time>2012-02-14T08:35:23Z</time>
      </trkpt>
      <trkpt lat="49.049410996958613" lon="6.855935035273433">
        <ele>190.96000000000001</ele>
        <time>2012-02-14T08:35:29Z</time>
      </trkpt>
      <trkpt lat="49.04931896366179" lon="6.855639992281795">
        <ele>191.91999999999999</ele>
        <time>2012-02-14T08:35:46Z</time>
      </trkpt>
      <trkpt lat="49.049173034727573" lon="6.855035992339253">
        <ele>192.88</ele>
        <time>2012-02-14T08:36:19Z</time>
      </trkpt>
      <trkpt lat="49.049131041392684" lon="6.854818984866142">
        <ele>192.88</ele>
        <time>2012-02-14T08:36:30Z</time>
      </trkpt>
      <trkpt lat="49.048997014760971" lon="6.854428974911571">
        <ele>193.84</ele>
        <time>2012-02-14T08:36:51Z</time>
      </trkpt>
      <trkpt lat="49.048884026706219" lon="6.853998983278871">
        <ele>193.84</ele>
        <time>2012-02-14T08:37:15Z</time>
      </trkpt>
      <trkpt lat="49.048830969259143" lon="6.853822041302919">
        <ele>194.31999999999999</ele>
        <time>2012-02-14T08:37:25Z</time>
      </trkpt>
      <trkpt lat="49.048738013952971" lon="6.853419039398432">
        <ele>195.28</ele>
        <time>2012-02-14T08:37:48Z</time>
      </trkpt>
      <trkpt lat="49.048732984811068" lon="6.853402024134994">
        <ele>196.72999999999999</ele>
        <time>2012-02-14T08:38:09Z</time>
      </trkpt>
      <trkpt lat="49.048733990639448" lon="6.853401018306613">
        <ele>196.72999999999999</ele>
        <time>2012-02-14T08:38:11Z</time>
      </trkpt>
      <trkpt lat="49.048627037554979" lon="6.852996004745364">
        <ele>196.25</ele>
        <time>2012-02-14T08:38:34Z</time>
      </trkpt>
      <trkpt lat="49.048531986773014" lon="6.852560983970761">
        <ele>194.80000000000001</ele>
        <time>2012-02-14T08:38:58Z</time>
      </trkpt>
      <trkpt lat="49.048500973731279" lon="6.852442966774106">
        <ele>195.28</ele>
        <time>2012-02-14T08:39:13Z</time>
      </trkpt>
      <trkpt lat="49.048385974019766" lon="6.852072989568114">
        <ele>196.72999999999999</ele>
        <time>2012-02-14T08:39:32Z</time>
      </trkpt>
      <trkpt lat="49.048291007056832" lon="6.851708041504026">
        <ele>197.21000000000001</ele>
        <time>2012-02-14T08:39:53Z</time>
      </trkpt>
      <trkpt lat="49.04828698374331" lon="6.85167602263391">
        <ele>198.16999999999999</ele>
        <time>2012-02-14T08:39:55Z</time>
      </trkpt>
      <trkpt lat="49.048238033428788" lon="6.851391959935427">
        <ele>197.69</ele>
        <time>2012-02-14T08:40:10Z</time>
      </trkpt>
      <trkpt lat="49.04817801900208" lon="6.851236978545785">
        <ele>198.65000000000001</ele>
        <time>2012-02-14T08:40:19Z</time>
      </trkpt>
      <trkpt lat="49.048125967383385" lon="6.850962974131107">
        <ele>198.16999999999999</ele>
        <time>2012-02-14T08:40:34Z</time>
      </trkpt>
      <trkpt lat="49.048036029562354" lon="6.850568018853664">
        <ele>200.09</ele>
        <time>2012-02-14T08:40:54Z</time>
      </trkpt>
      <trkpt lat="49.047919018194079" lon="6.850225031375885">
        <ele>200.56999999999999</ele>
        <time>2012-02-14T08:41:13Z</time>
      </trkpt>
      <trkpt lat="49.047908037900925" lon="6.850192006677389">
        <ele>199.13</ele>
        <time>2012-02-14T08:41:15Z</time>
      </trkpt>
      <trkpt lat="49.047777028754354" lon="6.850170968100429">
        <ele>198.65000000000001</ele>
        <time>2012-02-14T08:41:25Z</time>
      </trkpt>
      <trkpt lat="49.047290962189436" lon="6.850265013054013">
        <ele>198.65000000000001</ele>
        <time>2012-02-14T08:42:01Z</time>
      </trkpt>
      <trkpt lat="49.046907993033528" lon="6.850364003330469">
        <ele>200.09</ele>
        <time>2012-02-14T08:42:29Z</time>
      </trkpt>
      <trkpt lat="49.04656701721251" lon="6.850439021363854">
        <ele>199.13</ele>
        <time>2012-02-14T08:42:54Z</time>
      </trkpt>
      <trkpt lat="49.046355960890651" lon="6.850497024133802">
        <ele>197.69</ele>
        <time>2012-02-14T08:43:09Z</time>
      </trkpt>
      <trkpt lat="49.045995036140084" lon="6.850569024682045">
        <ele>198.16999999999999</ele>
        <time>2012-02-14T08:43:35Z</time>
      </trkpt>
      <trkpt lat="49.045755984261632" lon="6.850641025230289">
        <ele>198.65000000000001</ele>
        <time>2012-02-14T08:43:52Z</time>
      </trkpt>
      <trkpt lat="49.04551399871707" lon="6.85068603605032">
        <ele>198.16999999999999</ele>
        <time>2012-02-14T08:44:12Z</time>
      </trkpt>
      <trkpt lat="49.045449960976839" lon="6.850701039656997">
        <ele>198.16999999999999</ele>
        <time>2012-02-14T08:44:19Z</time>
      </trkpt>
      <trkpt lat="49.045416014268994" lon="6.850655023008585">
        <ele>198.65000000000001</ele>
        <time>2012-02-14T08:44:23Z</time>
      </trkpt>
      <trkpt lat="49.045358011499047" lon="6.850616969168186">
        <ele>199.13</ele>
        <time>2012-02-14T08:44:29Z</time>
      </trkpt>
      <trkpt lat="49.045217027887702" lon="6.850447990000248">
        <ele>198.65000000000001</ele>
        <time>2012-02-14T08:44:42Z</time>
      </trkpt>
      <trkpt lat="49.0451929718256" lon="6.850413959473372">
        <ele>197.21000000000001</ele>
        <time>2012-02-14T08:44:44Z</time>
      </trkpt>
      <trkpt lat="49.045099010691047" lon="6.850404990836978">
        <ele>199.13</ele>
        <time>2012-02-14T08:44:52Z</time>
      </trkpt>
      <trkpt lat="49.04502097517252" lon="6.850284039974213">
        <ele>199.13</ele>
        <time>2012-02-14T08:44:59Z</time>
      </trkpt>
      <trkpt lat="49.044883009046316" lon="6.850208016112447">
        <ele>200.56999999999999</ele>
        <time>2012-02-14T08:45:09Z</time>
      </trkpt>
      <trkpt lat="49.0447629801929" lon="6.850062003359199">
        <ele>201.05000000000001</ele>
        <time>2012-02-14T08:45:24Z</time>
      </trkpt>
      <trkpt lat="49.04472098685801" lon="6.850023027509451">
        <ele>202.97999999999999</ele>
        <time>2012-02-14T08:45:28Z</time>
      </trkpt>
      <trkpt lat="49.044687040150166" lon="6.849999977275729">
        <ele>203.94</ele>
        <time>2012-02-14T08:45:32Z</time>
      </trkpt>
      <trkpt lat="49.044578997418284" lon="6.849923031404614">
        <ele>203.94</ele>
        <time>2012-02-14T08:45:39Z</time>
      </trkpt>
      <trkpt lat="49.044452011585236" lon="6.849857987836003">
        <ele>204.90000000000001</ele>
        <time>2012-02-14T08:45:54Z</time>
      </trkpt>
      <trkpt lat="49.044223017990589" lon="6.849470995366573">
        <ele>206.34</ele>
        <time>2012-02-14T08:46:15Z</time>
      </trkpt>
      <trkpt lat="49.044020008295774" lon="6.849294975399971">
        <ele>207.30000000000001</ele>
        <time>2012-02-14T08:46:29Z</time>
      </trkpt>
      <trkpt lat="49.043888999149203" lon="6.849143011495471">
        <ele>206.81999999999999</ele>
        <time>2012-02-14T08:46:42Z</time>
      </trkpt>
      <trkpt lat="49.043873995542526" lon="6.849093977361918">
        <ele>206.81999999999999</ele>
        <time>2012-02-14T08:46:44Z</time>
      </trkpt>
      <trkpt lat="49.043835019692779" lon="6.849059024825692">
        <ele>206.81999999999999</ele>
        <time>2012-02-14T08:46:47Z</time>
      </trkpt>
      <trkpt lat="49.043762013316154" lon="6.848962968215346">
        <ele>206.34</ele>
        <time>2012-02-14T08:46:53Z</time>
      </trkpt>
      <trkpt lat="49.043720019981265" lon="6.848944025114179">
        <ele>206.81999999999999</ele>
        <time>2012-02-14T08:46:56Z</time>
      </trkpt>
      <trkpt lat="49.043589010834694" lon="6.848865989595652">
        <ele>205.38</ele>
        <time>2012-02-14T08:47:07Z</time>
      </trkpt>
      <trkpt lat="49.043469987809658" lon="6.84875501319766">
        <ele>204.90000000000001</ele>
        <time>2012-02-14T08:47:16Z</time>
      </trkpt>
      <trkpt lat="49.043421959504485" lon="6.848658034577966">
        <ele>205.38</ele>
        <time>2012-02-14T08:47:22Z</time>
      </trkpt>
      <trkpt lat="49.043335961177945" lon="6.848440021276474">
        <ele>206.81999999999999</ele>
        <time>2012-02-14T08:47:34Z</time>
      </trkpt>
      <trkpt lat="49.04323797672987" lon="6.848294008523226">
        <ele>206.34</ele>
        <time>2012-02-14T08:47:44Z</time>
      </trkpt>
      <trkpt lat="49.043149966746569" lon="6.848212033510208">
        <ele>205.86000000000001</ele>
        <time>2012-02-14T08:47:50Z</time>
      </trkpt>
      <trkpt lat="49.043050976470113" lon="6.848166016861796">
        <ele>206.34</ele>
        <time>2012-02-14T08:47:56Z</time>
      </trkpt>
      <trkpt lat="49.042961038649082" lon="6.848061997443438">
        <ele>207.30000000000001</ele>
        <time>2012-02-14T08:48:03Z</time>
      </trkpt>
      <trkpt lat="49.042797004804015" lon="6.847962001338601">
        <ele>207.78</ele>
        <time>2012-02-14T08:48:18Z</time>
      </trkpt>
      <trkpt lat="49.04274302534759" lon="6.847913973033428">
        <ele>208.25999999999999</ele>
        <time>2012-02-14T08:48:26Z</time>
      </trkpt>
      <trkpt lat="49.042734978720546" lon="6.847909027710557">
        <ele>208.74000000000001</ele>
        <time>2012-02-14T08:48:28Z</time>
      </trkpt>
      <trkpt lat="49.04261696152389" lon="6.847823029384017">
        <ele>209.22</ele>
        <time>2012-02-14T08:48:38Z</time>
      </trkpt>
      <trkpt lat="49.042547978460789" lon="6.847785981371999">
        <ele>208.74000000000001</ele>
        <time>2012-02-14T08:48:44Z</time>
      </trkpt>
      <trkpt lat="49.042521994560957" lon="6.847758991643786">
        <ele>209.69999999999999</ele>
        <time>2012-02-14T08:48:46Z</time>
      </trkpt>
      <trkpt lat="49.042419986799359" lon="6.847663018852472">
        <ele>210.66999999999999</ele>
        <time>2012-02-14T08:48:54Z</time>
      </trkpt>
      <trkpt lat="49.042310016229749" lon="6.847601998597384">
        <ele>212.11000000000001</ele>
        <time>2012-02-14T08:49:04Z</time>
      </trkpt>
      <trkpt lat="49.042250001803041" lon="6.847586994990706">
        <ele>213.55000000000001</ele>
        <time>2012-02-14T08:49:09Z</time>
      </trkpt>
      <trkpt lat="49.042106000706553" lon="6.847504014149308">
        <ele>214.50999999999999</ele>
        <time>2012-02-14T08:49:18Z</time>
      </trkpt>
      <trkpt lat="49.042052021250129" lon="6.847496973350644">
        <ele>214.03</ele>
        <time>2012-02-14T08:49:23Z</time>
      </trkpt>
      <trkpt lat="49.042039029300213" lon="6.847437964752317">
        <ele>215.47</ele>
        <time>2012-02-14T08:49:27Z</time>
      </trkpt>
      <trkpt lat="49.041978009045124" lon="6.847393959760666">
        <ele>216.43000000000001</ele>
        <time>2012-02-14T08:49:33Z</time>
      </trkpt>
      <trkpt lat="49.041953030973673" lon="6.847364958375692">
        <ele>216.91</ele>
        <time>2012-02-14T08:49:36Z</time>
      </trkpt>
      <trkpt lat="49.0419050026685" lon="6.847305027768016">
        <ele>217.88</ele>
        <time>2012-02-14T08:49:40Z</time>
      </trkpt>
      <trkpt lat="49.041820010170341" lon="6.847250964492559">
        <ele>218.84</ele>
        <time>2012-02-14T08:49:48Z</time>
      </trkpt>
      <trkpt lat="49.041750021278858" lon="6.84722900390625">
        <ele>219.80000000000001</ele>
        <time>2012-02-14T08:49:55Z</time>
      </trkpt>
      <trkpt lat="49.041611971333623" lon="6.847178963944316">
        <ele>221.24000000000001</ele>
        <time>2012-02-14T08:50:04Z</time>
      </trkpt>
      <trkpt lat="49.041509963572025" lon="6.847149962559342">
        <ele>223.16</ele>
        <time>2012-02-14T08:50:12Z</time>
      </trkpt>
      <trkpt lat="49.041468976065516" lon="6.847131019458175">
        <ele>223.63999999999999</ele>
        <time>2012-02-14T08:50:16Z</time>
      </trkpt>
      <trkpt lat="49.041308965533972" lon="6.847136970609427">
        <ele>225.09</ele>
        <time>2012-02-14T08:50:26Z</time>
      </trkpt>
      <trkpt lat="49.041287004947662" lon="6.847145017236471">
        <ele>226.05000000000001</ele>
        <time>2012-02-14T08:50:29Z</time>
      </trkpt>
      <trkpt lat="49.041125988587737" lon="6.847090031951666">
        <ele>226.53</ele>
        <time>2012-02-14T08:50:42Z</time>
      </trkpt>
      <trkpt lat="49.041106961667538" lon="6.847091037780047">
        <ele>228.44999999999999</ele>
        <time>2012-02-14T08:50:44Z</time>
      </trkpt>
      <trkpt lat="49.041010988876224" lon="6.847145017236471">
        <ele>229.41</ele>
        <time>2012-02-14T08:50:51Z</time>
      </trkpt>
      <trkpt lat="49.040875034406781" lon="6.847177036106587">
        <ele>230.37</ele>
        <time>2012-02-14T08:51:02Z</time>
      </trkpt>
      <trkpt lat="49.040709994733334" lon="6.847155997529626">
        <ele>229.88999999999999</ele>
        <time>2012-02-14T08:51:15Z</time>
      </trkpt>
      <trkpt lat="49.040456023067236" lon="6.847115010023117">
        <ele>229.41</ele>
        <time>2012-02-14T08:51:32Z</time>
      </trkpt>
      <trkpt lat="49.040442025288939" lon="6.847104029729962">
        <ele>229.41</ele>
        <time>2012-02-14T08:51:33Z</time>
      </trkpt>
      <trkpt lat="49.040302969515324" lon="6.847069999203086">
        <ele>225.56999999999999</ele>
        <time>2012-02-14T08:51:44Z</time>
      </trkpt>
      <trkpt lat="49.040270028635859" lon="6.847056001424789">
        <ele>227.97</ele>
        <time>2012-02-14T08:51:46Z</time>
      </trkpt>
      <trkpt lat="49.040161985903978" lon="6.847030017524958">
        <ele>227.49000000000001</ele>
        <time>2012-02-14T08:51:54Z</time>
      </trkpt>
      <trkpt lat="49.039999041706324" lon="6.847009984776378">
        <ele>227.97</ele>
        <time>2012-02-14T08:52:06Z</time>
      </trkpt>
      <trkpt lat="49.039855962619185" lon="6.846991963684559">
        <ele>228.44999999999999</ele>
        <time>2012-02-14T08:52:17Z</time>
      </trkpt>
      <trkpt lat="49.039722019806504" lon="6.846947958692908">
        <ele>227.49000000000001</ele>
        <time>2012-02-14T08:52:26Z</time>
      </trkpt>
      <trkpt lat="49.039700981229544" lon="6.846927003934979">
        <ele>228.93000000000001</ele>
        <time>2012-02-14T08:52:28Z</time>
      </trkpt>
      <trkpt lat="49.039489002898335" lon="6.846835976466537">
        <ele>227.97</ele>
        <time>2012-02-14T08:52:42Z</time>
      </trkpt>
      <trkpt lat="49.039452038705349" lon="6.846836982294917">
        <ele>228.93000000000001</ele>
        <time>2012-02-14T08:52:45Z</time>
      </trkpt>
      <trkpt lat="49.039410967379808" lon="6.846833964809775">
        <ele>230.84999999999999</ele>
        <time>2012-02-14T08:52:48Z</time>
      </trkpt>
      <trkpt lat="49.039216004312038" lon="6.846806975081563">
        <ele>232.30000000000001</ele>
        <time>2012-02-14T08:53:02Z</time>
      </trkpt>
      <trkpt lat="49.039076026529074" lon="6.846804041415453">
        <ele>232.78</ele>
        <time>2012-02-14T08:53:12Z</time>
      </trkpt>
      <trkpt lat="49.038871005177498" lon="6.84671200811863">
        <ele>233.74000000000001</ele>
        <time>2012-02-14T08:53:26Z</time>
      </trkpt>
      <trkpt lat="49.038819037377834" lon="6.846704967319965">
        <ele>233.74000000000001</ele>
        <time>2012-02-14T08:53:30Z</time>
      </trkpt>
      <trkpt lat="49.038650980219245" lon="6.846672026440501">
        <ele>231.81</ele>
        <time>2012-02-14T08:53:46Z</time>
      </trkpt>
      <trkpt lat="49.038535980507731" lon="6.846673032268882">
        <ele>233.74000000000001</ele>
        <time>2012-02-14T08:53:57Z</time>
      </trkpt>
      <trkpt lat="49.038535980507731" lon="6.846659034490585">
        <ele>234.69999999999999</ele>
        <time>2012-02-14T08:53:59Z</time>
      </trkpt>
      <trkpt lat="49.038538997992873" lon="6.846833964809775">
        <ele>233.74000000000001</ele>
        <time>2012-02-14T08:54:29Z</time>
      </trkpt>
      <trkpt lat="49.038543021306396" lon="6.847008978947997">
        <ele>233.74000000000001</ele>
        <time>2012-02-14T08:54:39Z</time>
      </trkpt>
      <trkpt lat="49.038543021306396" lon="6.847168989479542">
        <ele>231.81</ele>
        <time>2012-02-14T08:54:47Z</time>
      </trkpt>
      <trkpt lat="49.038544027134776" lon="6.847470989450812">
        <ele>231.81</ele>
        <time>2012-02-14T08:55:06Z</time>
      </trkpt>
      <trkpt lat="49.038544027134776" lon="6.847534021362662">
        <ele>230.37</ele>
        <time>2012-02-14T08:55:09Z</time>
      </trkpt>
      <trkpt lat="49.038558024913073" lon="6.847650026902556">
        <ele>229.88999999999999</ele>
        <time>2012-02-14T08:55:15Z</time>
      </trkpt>
      <trkpt lat="49.038571016862988" lon="6.847974993288517">
        <ele>228.44999999999999</ele>
        <time>2012-02-14T08:55:32Z</time>
      </trkpt>
      <trkpt lat="49.03859700076282" lon="6.848242040723562">
        <ele>229.41</ele>
        <time>2012-02-14T08:55:45Z</time>
      </trkpt>
      <trkpt lat="49.038615021854639" lon="6.848342958837748">
        <ele>227.49000000000001</ele>
        <time>2012-02-14T08:55:52Z</time>
      </trkpt>
      <trkpt lat="49.038621978834271" lon="6.848354022949934">
        <ele>229.41</ele>
        <time>2012-02-14T08:55:54Z</time>
      </trkpt>
      <trkpt lat="49.038632959127426" lon="6.848676977679133">
        <ele>229.88999999999999</ele>
        <time>2012-02-14T08:56:03Z</time>
      </trkpt>
      <trkpt lat="49.03870202600956" lon="6.848900020122528">
        <ele>228.93000000000001</ele>
        <time>2012-02-14T08:56:21Z</time>
      </trkpt>
      <trkpt lat="49.038675958290696" lon="6.849079979583621">
        <ele>229.41</ele>
        <time>2012-02-14T08:56:43Z</time>
      </trkpt>
      <trkpt lat="49.038742007687688" lon="6.84933696873486">
        <ele>229.41</ele>
        <time>2012-02-14T08:58:02Z</time>
      </trkpt>
      <trkpt lat="49.038813002407551" lon="6.849711975082755">
        <ele>227.49000000000001</ele>
        <time>2012-02-14T08:58:23Z</time>
      </trkpt>
      <trkpt lat="49.038936970755458" lon="6.850206004455686">
        <ele>227.97</ele>
        <time>2012-02-14T08:58:51Z</time>
      </trkpt>
      <trkpt lat="49.039014000445604" lon="6.850632978603244">
        <ele>226.05000000000001</ele>
        <time>2012-02-14T08:59:14Z</time>
      </trkpt>
      <trkpt lat="49.039062028750777" lon="6.851050984114409">
        <ele>226.05000000000001</ele>
        <time>2012-02-14T08:59:36Z</time>
      </trkpt>
      <trkpt lat="49.039106033742428" lon="6.85116296634078">
        <ele>225.56999999999999</ele>
        <time>2012-02-14T08:59:43Z</time>
      </trkpt>
      <trkpt lat="49.039234025403857" lon="6.851629000157118">
        <ele>223.16</ele>
        <time>2012-02-14T09:00:08Z</time>
      </trkpt>
      <trkpt lat="49.039365034550428" lon="6.852082964032888">
        <ele>220.75999999999999</ele>
        <time>2012-02-14T09:00:33Z</time>
      </trkpt>
      <trkpt lat="49.039383977651596" lon="6.852130992338061">
        <ele>222.19999999999999</ele>
        <time>2012-02-14T09:00:36Z</time>
      </trkpt>
      <trkpt lat="49.039510041475296" lon="6.852341964840889">
        <ele>223.16</ele>
        <time>2012-02-14T09:00:48Z</time>
      </trkpt>
      <trkpt lat="49.039608025923371" lon="6.852422012016177">
        <ele>219.80000000000001</ele>
        <time>2012-02-14T09:00:55Z</time>
      </trkpt>
      <trkpt lat="49.039624035358429" lon="6.852473979815841">
        <ele>222.19999999999999</ele>
        <time>2012-02-14T09:00:58Z</time>
      </trkpt>
      <trkpt lat="49.039775999262929" lon="6.852677995339036">
        <ele>222.68000000000001</ele>
        <time>2012-02-14T09:01:14Z</time>
      </trkpt>
      <trkpt lat="49.039910025894642" lon="6.852840017527342">
        <ele>222.19999999999999</ele>
        <time>2012-02-14T09:01:32Z</time>
      </trkpt>
      <trkpt lat="49.039944978430867" lon="6.852872036397457">
        <ele>221.72</ele>
        <time>2012-02-14T09:01:37Z</time>
      </trkpt>
      <trkpt lat="49.040131978690624" lon="6.85317998751998">
        <ele>221.72</ele>
        <time>2012-02-14T09:02:15Z</time>
      </trkpt>
      <trkpt lat="49.040218982845545" lon="6.853255005553365">
        <ele>219.80000000000001</ele>
        <time>2012-02-14T09:02:23Z</time>
      </trkpt>
      <trkpt lat="49.040350997820497" lon="6.853462960571051">
        <ele>220.75999999999999</ele>
        <time>2012-02-14T09:02:40Z</time>
      </trkpt>
      <trkpt lat="49.040372036397457" lon="6.853500008583069">
        <ele>219.80000000000001</ele>
        <time>2012-02-14T09:02:42Z</time>
      </trkpt>
      <trkpt lat="49.040527017787099" lon="6.853784993290901">
        <ele>220.28</ele>
        <time>2012-02-14T09:03:00Z</time>
      </trkpt>
      <trkpt lat="49.040646040812135" lon="6.854225965216756">
        <ele>218.84</ele>
        <time>2012-02-14T09:03:23Z</time>
      </trkpt>
      <trkpt lat="49.040702031925321" lon="6.854311041533947">
        <ele>220.28</ele>
        <time>2012-02-14T09:03:29Z</time>
      </trkpt>
      <trkpt lat="49.040714018046856" lon="6.854351023212075">
        <ele>218.84</ele>
        <time>2012-02-14T09:03:31Z</time>
      </trkpt>
      <trkpt lat="49.040733966976404" lon="6.854400979354978">
        <ele>219.80000000000001</ele>
        <time>2012-02-14T09:03:33Z</time>
      </trkpt>
      <trkpt lat="49.040872016921639" lon="6.854880005121231">
        <ele>217.88</ele>
        <time>2012-02-14T09:03:57Z</time>
      </trkpt>
      <trkpt lat="49.041003026068211" lon="6.855316031724215">
        <ele>219.31999999999999</ele>
        <time>2012-02-14T09:04:20Z</time>
      </trkpt>
      <trkpt lat="49.041168987751007" lon="6.855616020038724">
        <ele>219.80000000000001</ele>
        <time>2012-02-14T09:04:42Z</time>
      </trkpt>
      <trkpt lat="49.041170999407768" lon="6.855921959504485">
        <ele>218.36000000000001</ele>
        <time>2012-02-14T09:04:58Z</time>
      </trkpt>
      <trkpt lat="49.041296979412436" lon="6.856367038562894">
        <ele>219.80000000000001</ele>
        <time>2012-02-14T09:05:22Z</time>
      </trkpt>
      <trkpt lat="49.041392030194402" lon="6.856838017702103">
        <ele>219.80000000000001</ele>
        <time>2012-02-14T09:05:44Z</time>
      </trkpt>
      <trkpt lat="49.041445003822446" lon="6.857189973816276">
        <ele>218.84</ele>
        <time>2012-02-14T09:06:00Z</time>
      </trkpt>
      <trkpt lat="49.041462019085884" lon="6.857418967410922">
        <ele>217.88</ele>
        <time>2012-02-14T09:06:15Z</time>
      </trkpt>
      <trkpt lat="49.041328998282552" lon="6.857460960745812">
        <ele>220.75999999999999</ele>
        <time>2012-02-14T09:06:37Z</time>
      </trkpt>
      <trkpt lat="49.041103022173047" lon="6.857553999871016">
        <ele>219.31999999999999</ele>
        <time>2012-02-14T09:06:53Z</time>
      </trkpt>
      <trkpt lat="49.040851984173059" lon="6.857638992369175">
        <ele>222.68000000000001</ele>
        <time>2012-02-14T09:07:18Z</time>
      </trkpt>
      <trkpt lat="49.040683005005121" lon="6.857732031494379">
        <ele>223.16</ele>
        <time>2012-02-14T09:07:55Z</time>
      </trkpt>
      <trkpt lat="49.040676970034838" lon="6.857731025665999">
        <ele>221.72</ele>
        <time>2012-02-14T09:07:58Z</time>
      </trkpt>
      <trkpt lat="49.040709994733334" lon="6.857730019837618">
        <ele>222.19999999999999</ele>
        <time>2012-02-14T09:08:39Z</time>
      </trkpt>
      <trkpt lat="49.040661966428161" lon="6.857742005959153">
        <ele>226.05000000000001</ele>
        <time>2012-02-14T09:08:59Z</time>
      </trkpt>
      <trkpt lat="49.04066096059978" lon="6.857742005959153">
        <ele>226.05000000000001</ele>
        <time>2012-02-14T09:09:00Z</time>
      </trkpt>
      <trkpt lat="49.040470020845532" lon="6.857791962102056">
        <ele>229.41</ele>
        <time>2012-02-14T09:09:21Z</time>
      </trkpt>
      <trkpt lat="49.040375975891948" lon="6.857655001804233">
        <ele>229.88999999999999</ele>
        <time>2012-02-14T09:09:54Z</time>
      </trkpt>
      <trkpt lat="49.040377987548709" lon="6.85758400708437">
        <ele>230.37</ele>
        <time>2012-02-14T09:09:57Z</time>
      </trkpt>
      <trkpt lat="49.040302969515324" lon="6.857493985444307">
        <ele>233.25999999999999</ele>
        <time>2012-02-14T09:10:04Z</time>
      </trkpt>
      <trkpt lat="49.04020699672401" lon="6.857446962967515">
        <ele>234.69999999999999</ele>
        <time>2012-02-14T09:10:15Z</time>
      </trkpt>
      <trkpt lat="49.040185958147049" lon="6.857446962967515">
        <ele>234.22</ele>
        <time>2012-02-14T09:10:17Z</time>
      </trkpt>
      <trkpt lat="49.04001597315073" lon="6.857594987377524">
        <ele>236.62</ele>
        <time>2012-02-14T09:10:36Z</time>
      </trkpt>
      <trkpt lat="49.039874989539385" lon="6.857731025665999">
        <ele>235.66</ele>
        <time>2012-02-14T09:10:46Z</time>
      </trkpt>
      <trkpt lat="49.039740040898323" lon="6.857801014557481">
        <ele>233.74000000000001</ele>
        <time>2012-02-14T09:10:59Z</time>
      </trkpt>
      <trkpt lat="49.039576007053256" lon="6.8579709995538">
        <ele>232.78</ele>
        <time>2012-02-14T09:11:13Z</time>
      </trkpt>
      <trkpt lat="49.039545999839902" lon="6.85799396596849">
        <ele>230.84999999999999</ele>
        <time>2012-02-14T09:11:16Z</time>
      </trkpt>
      <trkpt lat="49.039534013718367" lon="6.85799103230238">
        <ele>231.81</ele>
        <time>2012-02-14T09:11:17Z</time>
      </trkpt>
      <trkpt lat="49.039401998743415" lon="6.858082981780171">
        <ele>228.93000000000001</ele>
        <time>2012-02-14T09:11:28Z</time>
      </trkpt>
      <trkpt lat="49.039371991530061" lon="6.858097985386848">
        <ele>227.97</ele>
        <time>2012-02-14T09:11:30Z</time>
      </trkpt>
      <trkpt lat="49.039335027337074" lon="6.858109971508384">
        <ele>228.93000000000001</ele>
        <time>2012-02-14T09:11:32Z</time>
      </trkpt>
      <trkpt lat="49.039293034002185" lon="6.85816302895546">
        <ele>227.49000000000001</ele>
        <time>2012-02-14T09:11:36Z</time>
      </trkpt>
      <trkpt lat="49.039138974621892" lon="6.858221031725407">
        <ele>227.00999999999999</ele>
        <time>2012-02-14T09:11:48Z</time>
      </trkpt>
      <trkpt lat="49.039108967408538" lon="6.858222037553787">
        <ele>225.56999999999999</ele>
        <time>2012-02-14T09:11:50Z</time>
      </trkpt>
      <trkpt lat="49.039064040407538" lon="6.858217008411884">
        <ele>226.05000000000001</ele>
        <time>2012-02-14T09:11:52Z</time>
      </trkpt>
      <trkpt lat="49.038992961868644" lon="6.858105026185513">
        <ele>225.56999999999999</ele>
        <time>2012-02-14T09:11:58Z</time>
      </trkpt>
      <trkpt lat="49.038945017382503" lon="6.858096979558468">
        <ele>226.53</ele>
        <time>2012-02-14T09:12:02Z</time>
      </trkpt>
      <trkpt lat="49.038864970207214" lon="6.858139978721738">
        <ele>224.12</ele>
        <time>2012-02-14T09:12:09Z</time>
      </trkpt>
      <trkpt lat="49.038859019055963" lon="6.858126986771822">
        <ele>224.12</ele>
        <time>2012-02-14T09:12:10Z</time>
      </trkpt>
      <trkpt lat="49.038739996030927" lon="6.858180966228247">
        <ele>224.12</ele>
        <time>2012-02-14T09:12:19Z</time>
      </trkpt>
      <trkpt lat="49.038649974390864" lon="6.858222959563136">
        <ele>225.09</ele>
        <time>2012-02-14T09:12:31Z</time>
      </trkpt>
      <trkpt lat="49.038696996867657" lon="6.858655968680978">
        <ele>227.00999999999999</ele>
        <time>2012-02-14T09:12:52Z</time>
      </trkpt>
      <trkpt lat="49.038687022402883" lon="6.858727969229221">
        <ele>228.93000000000001</ele>
        <time>2012-02-14T09:12:58Z</time>
      </trkpt>
      <trkpt lat="49.038721974939108" lon="6.858878005295992">
        <ele>230.37</ele>
        <time>2012-02-14T09:13:08Z</time>
      </trkpt>
      <trkpt lat="49.03874795883894" lon="6.859055031090975">
        <ele>232.30000000000001</ele>
        <time>2012-02-14T09:13:20Z</time>
      </trkpt>
      <trkpt lat="49.038825994357467" lon="6.859520981088281">
        <ele>234.22</ele>
        <time>2012-02-14T09:13:44Z</time>
      </trkpt>
      <trkpt lat="49.038868993520737" lon="6.859722984954715">
        <ele>233.74000000000001</ele>
        <time>2012-02-14T09:14:03Z</time>
      </trkpt>
      <trkpt lat="49.038904029875994" lon="6.859974022954702">
        <ele>235.66</ele>
        <time>2012-02-14T09:14:23Z</time>
      </trkpt>
      <trkpt lat="49.038928002119064" lon="6.86007795855403">
        <ele>235.18000000000001</ele>
        <time>2012-02-14T09:14:30Z</time>
      </trkpt>
      <trkpt lat="49.038931019604206" lon="6.860108971595764">
        <ele>233.74000000000001</ele>
        <time>2012-02-14T09:14:32Z</time>
      </trkpt>
      <trkpt lat="49.038988016545773" lon="6.860309969633818">
        <ele>236.62</ele>
        <time>2012-02-14T09:14:46Z</time>
      </trkpt>
      <trkpt lat="49.038998996838927" lon="6.860395967960358">
        <ele>238.06</ele>
        <time>2012-02-14T09:14:50Z</time>
      </trkpt>
      <trkpt lat="49.039011988788843" lon="6.860520020127296">
        <ele>238.53999999999999</ele>
        <time>2012-02-14T09:14:57Z</time>
      </trkpt>
      <trkpt lat="49.039023974910378" lon="6.860654968768358">
        <ele>239.99000000000001</ele>
        <time>2012-02-14T09:15:18Z</time>
      </trkpt>
      <trkpt lat="49.039081977680326" lon="6.860940037295222">
        <ele>243.34999999999999</ele>
        <time>2012-02-14T09:15:41Z</time>
      </trkpt>
      <trkpt lat="49.039116008207202" lon="6.861061993986368">
        <ele>242.87</ele>
        <time>2012-02-14T09:15:50Z</time>
      </trkpt>
      <trkpt lat="49.039126988500357" lon="6.861100969836116">
        <ele>244.31</ele>
        <time>2012-02-14T09:15:53Z</time>
      </trkpt>
      <trkpt lat="49.039253974333405" lon="6.861546970903873">
        <ele>245.27000000000001</ele>
        <time>2012-02-14T09:16:17Z</time>
      </trkpt>
      <trkpt lat="49.039349025115371" lon="6.861923988908529">
        <ele>247.19999999999999</ele>
        <time>2012-02-14T09:16:37Z</time>
      </trkpt>
      <trkpt lat="49.039325974881649" lon="6.862181983888149">
        <ele>247.68000000000001</ele>
        <time>2012-02-14T09:16:57Z</time>
      </trkpt>
      <trkpt lat="49.039212986826897" lon="6.862528994679451">
        <ele>247.68000000000001</ele>
        <time>2012-02-14T09:17:18Z</time>
      </trkpt>
      <trkpt lat="49.039165964350104" lon="6.862614993005991">
        <ele>246.72</ele>
        <time>2012-02-14T09:17:24Z</time>
      </trkpt>
      <trkpt lat="49.039104022085667" lon="6.862909030169249">
        <ele>247.68000000000001</ele>
        <time>2012-02-14T09:17:39Z</time>
      </trkpt>
      <trkpt lat="49.039080971851945" lon="6.863077003508806">
        <ele>248.16</ele>
        <time>2012-02-14T09:17:55Z</time>
      </trkpt>
      <trkpt lat="49.039079966023564" lon="6.863109022378922">
        <ele>248.16</ele>
        <time>2012-02-14T09:17:56Z</time>
      </trkpt>
      <trkpt lat="49.03911299072206" lon="6.863267021253705">
        <ele>248.16</ele>
        <time>2012-02-14T09:18:02Z</time>
      </trkpt>
      <trkpt lat="49.038979969918728" lon="6.86347296461463">
        <ele>247.19999999999999</ele>
        <time>2012-02-14T09:18:19Z</time>
      </trkpt>
      <trkpt lat="49.038872011005878" lon="6.863552005961537">
        <ele>248.63999999999999</ele>
        <time>2012-02-14T09:18:27Z</time>
      </trkpt>
      <trkpt lat="49.038837980479002" lon="6.86357899568975">
        <ele>246.22999999999999</ele>
        <time>2012-02-14T09:18:30Z</time>
      </trkpt>
      <trkpt lat="49.038770003244281" lon="6.863681003451347">
        <ele>247.19999999999999</ele>
        <time>2012-02-14T09:18:44Z</time>
      </trkpt>
      <trkpt lat="49.038600018247962" lon="6.863865992054343">
        <ele>247.68000000000001</ele>
        <time>2012-02-14T09:18:57Z</time>
      </trkpt>
      <trkpt lat="49.038550984114408" lon="6.863864986225963">
        <ele>246.72</ele>
        <time>2012-02-14T09:19:03Z</time>
      </trkpt>
      <trkpt lat="49.038354009389877" lon="6.86400898732245">
        <ele>246.72</ele>
        <time>2012-02-14T09:19:20Z</time>
      </trkpt>
      <trkpt lat="49.038245966657996" lon="6.864091968163848">
        <ele>245.75</ele>
        <time>2012-02-14T09:19:26Z</time>
      </trkpt>
      <trkpt lat="49.038239009678364" lon="6.864103032276034">
        <ele>248.16</ele>
        <time>2012-02-14T09:19:28Z</time>
      </trkpt>
      <trkpt lat="49.038228029385209" lon="6.864100014790893">
        <ele>247.19999999999999</ele>
        <time>2012-02-14T09:19:55Z</time>
      </trkpt>
      <trkpt lat="49.03818603605032" lon="6.864131027832627">
        <ele>248.16</ele>
        <time>2012-02-14T09:19:59Z</time>
      </trkpt>
      <trkpt lat="49.038140019401908" lon="6.864163968712091">
        <ele>246.72</ele>
        <time>2012-02-14T09:20:02Z</time>
      </trkpt>
      <trkpt lat="49.037966011092067" lon="6.864305036142469">
        <ele>247.19999999999999</ele>
        <time>2012-02-14T09:20:16Z</time>
      </trkpt>
      <trkpt lat="49.037835001945496" lon="6.864388016983867">
        <ele>248.63999999999999</ele>
        <time>2012-02-14T09:20:28Z</time>
      </trkpt>
      <trkpt lat="49.037710027769208" lon="6.86448197811842">
        <ele>249.12</ele>
        <time>2012-02-14T09:20:39Z</time>
      </trkpt>
      <trkpt lat="49.037531996145844" lon="6.864596977829933">
        <ele>248.16</ele>
        <time>2012-02-14T09:20:54Z</time>
      </trkpt>
      <trkpt lat="49.037425965070724" lon="6.864683981984854">
        <ele>249.59999999999999</ele>
        <time>2012-02-14T09:21:06Z</time>
      </trkpt>
      <trkpt lat="49.037367040291429" lon="6.864721029996872">
        <ele>249.59999999999999</ele>
        <time>2012-02-14T09:21:13Z</time>
      </trkpt>
      <trkpt lat="49.037244999781251" lon="6.864785989746451">
        <ele>251.03999999999999</ele>
        <time>2012-02-14T09:21:22Z</time>
      </trkpt>
      <trkpt lat="49.03722102753818" lon="6.864829994738102">
        <ele>251.03999999999999</ele>
        <time>2012-02-14T09:21:41Z</time>
      </trkpt>
      <trkpt lat="49.037217004224658" lon="6.864852961152792">
        <ele>248.63999999999999</ele>
        <time>2012-02-14T09:22:00Z</time>
      </trkpt>
      <trkpt lat="49.037227984517813" lon="6.864938959479332">
        <ele>249.59999999999999</ele>
        <time>2012-02-14T09:22:05Z</time>
      </trkpt>
      <trkpt lat="49.037236031144857" lon="6.865025963634253">
        <ele>248.16</ele>
        <time>2012-02-14T09:22:09Z</time>
      </trkpt>
      <trkpt lat="49.037252962589264" lon="6.865279013291001">
        <ele>246.72</ele>
        <time>2012-02-14T09:22:21Z</time>
      </trkpt>
      <trkpt lat="49.037276012822986" lon="6.865352019667625">
        <ele>247.19999999999999</ele>
        <time>2012-02-14T09:22:25Z</time>
      </trkpt>
      <trkpt lat="49.037271989509463" lon="6.865389989688993">
        <ele>246.72</ele>
        <time>2012-02-14T09:22:27Z</time>
      </trkpt>
      <trkpt lat="49.037292022258043" lon="6.865625018253923">
        <ele>245.27000000000001</ele>
        <time>2012-02-14T09:22:42Z</time>
      </trkpt>
      <trkpt lat="49.037321023643017" lon="6.865713028237224">
        <ele>245.27000000000001</ele>
        <time>2012-02-14T09:22:49Z</time>
      </trkpt>
      <trkpt lat="49.037378020584583" lon="6.865660976618528">
        <ele>245.75</ele>
        <time>2012-02-14T09:23:05Z</time>
      </trkpt>
      <trkpt lat="49.037378020584583" lon="6.865681009367108">
        <ele>246.72</ele>
        <time>2012-02-14T09:23:09Z</time>
      </trkpt>
      <trkpt lat="49.037381038069725" lon="6.865768013522029">
        <ele>245.27000000000001</ele>
        <time>2012-02-14T09:23:20Z</time>
      </trkpt>
      <trkpt lat="49.037365028634667" lon="6.865829033777118">
        <ele>244.31</ele>
        <time>2012-02-14T09:23:24Z</time>
      </trkpt>
      <trkpt lat="49.037377014756203" lon="6.865962976589799">
        <ele>244.78999999999999</ele>
        <time>2012-02-14T09:23:33Z</time>
      </trkpt>
      <trkpt lat="49.037427976727486" lon="6.866103960201144">
        <ele>244.31</ele>
        <time>2012-02-14T09:23:40Z</time>
      </trkpt>
      <trkpt lat="49.037498971447349" lon="6.86645700596273">
        <ele>239.99000000000001</ele>
        <time>2012-02-14T09:23:59Z</time>
      </trkpt>
      <trkpt lat="49.037528978660703" lon="6.866621961817145">
        <ele>241.91</ele>
        <time>2012-02-14T09:24:08Z</time>
      </trkpt>
      <trkpt lat="49.037536019459367" lon="6.866649035364389">
        <ele>239.99000000000001</ele>
        <time>2012-02-14T09:24:10Z</time>
      </trkpt>
      <trkpt lat="49.037591004744172" lon="6.866839975118637">
        <ele>240.47</ele>
        <time>2012-02-14T09:24:20Z</time>
      </trkpt>
      <trkpt lat="49.037591004744172" lon="6.866884985938668">
        <ele>239.99000000000001</ele>
        <time>2012-02-14T09:24:22Z</time>
      </trkpt>
      <trkpt lat="49.037599973380566" lon="6.866961009800434">
        <ele>239.50999999999999</ele>
        <time>2012-02-14T09:24:26Z</time>
      </trkpt>
      <trkpt lat="49.037660993635654" lon="6.867219004780054">
        <ele>240.47</ele>
        <time>2012-02-14T09:24:40Z</time>
      </trkpt>
      <trkpt lat="49.037657976150513" lon="6.867237025871873">
        <ele>239.99000000000001</ele>
        <time>2012-02-14T09:24:41Z</time>
      </trkpt>
      <trkpt lat="49.037691000849009" lon="6.867322018370032">
        <ele>241.43000000000001</ele>
        <time>2012-02-14T09:24:45Z</time>
      </trkpt>
      <trkpt lat="49.03775897808373" lon="6.867531985044479">
        <ele>240.47</ele>
        <time>2012-02-14T09:24:58Z</time>
      </trkpt>
      <trkpt lat="49.03778001666069" lon="6.867614965885878">
        <ele>239.50999999999999</ele>
        <time>2012-02-14T09:25:04Z</time>
      </trkpt>
      <trkpt lat="49.037800971418619" lon="6.867728959769011">
        <ele>239.02000000000001</ele>
        <time>2012-02-14T09:25:12Z</time>
      </trkpt>
      <trkpt lat="49.037850005552173" lon="6.867972034960985">
        <ele>238.06</ele>
        <time>2012-02-14T09:25:22Z</time>
      </trkpt>
      <trkpt lat="49.037864003330469" lon="6.868015034124255">
        <ele>238.06</ele>
        <time>2012-02-14T09:25:25Z</time>
      </trkpt>
      <trkpt lat="49.037902979180217" lon="6.86817797832191">
        <ele>237.58000000000001</ele>
        <time>2012-02-14T09:25:35Z</time>
      </trkpt>
      <trkpt lat="49.037972968071699" lon="6.868552984669805">
        <ele>236.13999999999999</ele>
        <time>2012-02-14T09:25:53Z</time>
      </trkpt>
      <trkpt lat="49.038028037175536" lon="6.868826989084482">
        <ele>236.62</ele>
        <time>2012-02-14T09:26:07Z</time>
      </trkpt>
      <trkpt lat="49.038086039945483" lon="6.868978030979633">
        <ele>235.66</ele>
        <time>2012-02-14T09:26:20Z</time>
      </trkpt>
      <trkpt lat="49.038085034117103" lon="6.869053971022368">
        <ele>235.18000000000001</ele>
        <time>2012-02-14T09:26:38Z</time>
      </trkpt>
      <trkpt lat="49.038098026067019" lon="6.869193026795983">
        <ele>236.62</ele>
        <time>2012-02-14T09:27:01Z</time>
      </trkpt>
      <trkpt lat="49.038138007745147" lon="6.869348008185625">
        <ele>236.62</ele>
        <time>2012-02-14T09:27:11Z</time>
      </trkpt>
      <trkpt lat="49.038152005523443" lon="6.869385978206992">
        <ele>235.18000000000001</ele>
        <time>2012-02-14T09:27:13Z</time>
      </trkpt>
      <trkpt lat="49.038164997473359" lon="6.86950801871717">
        <ele>235.18000000000001</ele>
        <time>2012-02-14T09:27:19Z</time>
      </trkpt>
      <trkpt lat="49.038171032443643" lon="6.869537020102143">
        <ele>234.69999999999999</ele>
        <time>2012-02-14T09:27:20Z</time>
      </trkpt>
      <trkpt lat="49.038182012736797" lon="6.869608014822006">
        <ele>235.18000000000001</ele>
        <time>2012-02-14T09:27:24Z</time>
      </trkpt>
      <trkpt lat="49.038201961666346" lon="6.869643973186612">
        <ele>235.18000000000001</ele>
        <time>2012-02-14T09:27:26Z</time>
      </trkpt>
      <trkpt lat="49.038233980536461" lon="6.869762996211648">
        <ele>234.22</ele>
        <time>2012-02-14T09:27:34Z</time>
      </trkpt>
      <trkpt lat="49.038240015506744" lon="6.869816975668073">
        <ele>235.18000000000001</ele>
        <time>2012-02-14T09:27:37Z</time>
      </trkpt>
      <trkpt lat="49.038268011063337" lon="6.869908003136516">
        <ele>234.22</ele>
        <time>2012-02-14T09:27:42Z</time>
      </trkpt>
      <trkpt lat="49.038273962214589" lon="6.870071031153202">
        <ele>234.22</ele>
        <time>2012-02-14T09:27:58Z</time>
      </trkpt>
      <trkpt lat="49.038282008841634" lon="6.870134985074401">
        <ele>232.30000000000001</ele>
        <time>2012-02-14T09:28:01Z</time>
      </trkpt>
      <trkpt lat="49.038180001080036" lon="6.870249984785914">
        <ele>233.25999999999999</ele>
        <time>2012-02-14T09:28:10Z</time>
      </trkpt>
      <trkpt lat="49.038022002205253" lon="6.870406977832317">
        <ele>231.81</ele>
        <time>2012-02-14T09:28:25Z</time>
      </trkpt>
      <trkpt lat="49.037828966975212" lon="6.87056296505034">
        <ele>231.33000000000001</ele>
        <time>2012-02-14T09:28:42Z</time>
      </trkpt>
      <trkpt lat="49.037775993347168" lon="6.870664972811937">
        <ele>232.30000000000001</ele>
        <time>2012-02-14T09:28:49Z</time>
      </trkpt>
      <trkpt lat="49.037753026932478" lon="6.870950041338801">
        <ele>233.74000000000001</ele>
        <time>2012-02-14T09:29:04Z</time>
      </trkpt>
      <trkpt lat="49.037818992510438" lon="6.871176017448306">
        <ele>231.81</ele>
        <time>2012-02-14T09:29:15Z</time>
      </trkpt>
      <trkpt lat="49.037819998338819" lon="6.871207030490041">
        <ele>233.74000000000001</ele>
        <time>2012-02-14T09:29:17Z</time>
      </trkpt>
      <trkpt lat="49.037869032472372" lon="6.871381038799882">
        <ele>233.25999999999999</ele>
        <time>2012-02-14T09:29:28Z</time>
      </trkpt>
      <trkpt lat="49.037988977506757" lon="6.871616989374161">
        <ele>232.78</ele>
        <time>2012-02-14T09:29:42Z</time>
      </trkpt>
      <trkpt lat="49.038034994155169" lon="6.871668035164475">
        <ele>233.74000000000001</ele>
        <time>2012-02-14T09:29:45Z</time>
      </trkpt>
      <trkpt lat="49.038052009418607" lon="6.871741963550448">
        <ele>232.30000000000001</ele>
        <time>2012-02-14T09:29:57Z</time>
      </trkpt>
      <trkpt lat="49.038234986364841" lon="6.871956959366798">
        <ele>232.78</ele>
        <time>2012-02-14T09:30:12Z</time>
      </trkpt>
      <trkpt lat="49.038270022720098" lon="6.872049998492003">
        <ele>233.25999999999999</ele>
        <time>2012-02-14T09:30:17Z</time>
      </trkpt>
      <trkpt lat="49.038326013833284" lon="6.872119987383485">
        <ele>232.78</ele>
        <time>2012-02-14T09:30:22Z</time>
      </trkpt>
      <trkpt lat="49.038476971909404" lon="6.872376976534724">
        <ele>230.84999999999999</ele>
        <time>2012-02-14T09:30:39Z</time>
      </trkpt>
      <trkpt lat="49.038495998829603" lon="6.872431039810181">
        <ele>230.84999999999999</ele>
        <time>2012-02-14T09:30:42Z</time>
      </trkpt>
      <trkpt lat="49.038609992712736" lon="6.87264402396977">
        <ele>232.30000000000001</ele>
        <time>2012-02-14T09:30:56Z</time>
      </trkpt>
      <trkpt lat="49.0387689974159" lon="6.872835969552398">
        <ele>230.37</ele>
        <time>2012-02-14T09:31:12Z</time>
      </trkpt>
      <trkpt lat="49.038827000185847" lon="6.872958010062575">
        <ele>229.41</ele>
        <time>2012-02-14T09:31:19Z</time>
      </trkpt>
      <trkpt lat="49.0389209613204" lon="6.873130006715655">
        <ele>229.41</ele>
        <time>2012-02-14T09:31:28Z</time>
      </trkpt>
      <trkpt lat="49.038934037089348" lon="6.873174011707306">
        <ele>228.44999999999999</ele>
        <time>2012-02-14T09:31:30Z</time>
      </trkpt>
      <trkpt lat="49.039001008495688" lon="6.873259004205465">
        <ele>230.84999999999999</ele>
        <time>2012-02-14T09:31:37Z</time>
      </trkpt>
      <trkpt lat="49.039101004600525" lon="6.873490009456873">
        <ele>228.93000000000001</ele>
        <time>2012-02-14T09:31:50Z</time>
      </trkpt>
      <trkpt lat="49.039136962965131" lon="6.873764013871551">
        <ele>229.88999999999999</ele>
        <time>2012-02-14T09:32:04Z</time>
      </trkpt>
      <trkpt lat="49.039164958521724" lon="6.873910026624799">
        <ele>228.93000000000001</ele>
        <time>2012-02-14T09:32:11Z</time>
      </trkpt>
      <trkpt lat="49.039159007370472" lon="6.874079005792737">
        <ele>229.88999999999999</ele>
        <time>2012-02-14T09:32:26Z</time>
      </trkpt>
      <trkpt lat="49.039152972400188" lon="6.874136002734304">
        <ele>232.78</ele>
        <time>2012-02-14T09:32:40Z</time>
      </trkpt>
      <trkpt lat="49.039156995713711" lon="6.874144971370697">
        <ele>229.88999999999999</ele>
        <time>2012-02-14T09:32:46Z</time>
      </trkpt>
      <trkpt lat="49.039168981835246" lon="6.874140026047826">
        <ele>231.81</ele>
        <time>2012-02-14T09:32:51Z</time>
      </trkpt>
      <trkpt lat="49.039207035675645" lon="6.874138014391065">
        <ele>231.33000000000001</ele>
        <time>2012-02-14T09:32:55Z</time>
      </trkpt>
      <trkpt lat="49.039357993751764" lon="6.87421303242445">
        <ele>229.41</ele>
        <time>2012-02-14T09:33:09Z</time>
      </trkpt>
      <trkpt lat="49.03937098570168" lon="6.874222001060844">
        <ele>230.37</ele>
        <time>2012-02-14T09:33:10Z</time>
      </trkpt>
      <trkpt lat="49.039389006793499" lon="6.874243961647153">
        <ele>229.41</ele>
        <time>2012-02-14T09:33:12Z</time>
      </trkpt>
      <trkpt lat="49.039539964869618" lon="6.874381005764008">
        <ele>227.97</ele>
        <time>2012-02-14T09:33:24Z</time>
      </trkpt>
      <trkpt lat="49.039643984287977" lon="6.874512014910579">
        <ele>226.53</ele>
        <time>2012-02-14T09:33:37Z</time>
      </trkpt>
      <trkpt lat="49.039746997877955" lon="6.874611005187035">
        <ele>226.53</ele>
        <time>2012-02-14T09:33:46Z</time>
      </trkpt>
      <trkpt lat="49.039810029789805" lon="6.874723993241787">
        <ele>227.00999999999999</ele>
        <time>2012-02-14T09:33:50Z</time>
      </trkpt>
      <trkpt lat="49.039955958724022" lon="6.874841004610062">
        <ele>225.56999999999999</ele>
        <time>2012-02-14T09:34:02Z</time>
      </trkpt>
      <trkpt lat="49.03997004032135" lon="6.874855002388358">
        <ele>226.05000000000001</ele>
        <time>2012-02-14T09:34:03Z</time>
      </trkpt>
      <trkpt lat="49.040024019777775" lon="6.874904036521912">
        <ele>227.00999999999999</ele>
        <time>2012-02-14T09:34:07Z</time>
      </trkpt>
      <trkpt lat="49.04007900506258" lon="6.87494401820004">
        <ele>225.09</ele>
        <time>2012-02-14T09:34:11Z</time>
      </trkpt>
      <trkpt lat="49.0402299631387" lon="6.874977964907885">
        <ele>224.12</ele>
        <time>2012-02-14T09:34:25Z</time>
      </trkpt>
      <trkpt lat="49.0402299631387" lon="6.874991962686181">
        <ele>226.05000000000001</ele>
        <time>2012-02-14T09:34:26Z</time>
      </trkpt>
      <trkpt lat="49.040329959243536" lon="6.874962961301208">
        <ele>226.05000000000001</ele>
        <time>2012-02-14T09:34:35Z</time>
      </trkpt>
      <trkpt lat="49.040360972285271" lon="6.874962961301208">
        <ele>226.05000000000001</ele>
        <time>2012-02-14T09:34:37Z</time>
      </trkpt>
      <trkpt lat="49.040519976988435" lon="6.874809991568327">
        <ele>226.53</ele>
        <time>2012-02-14T09:34:51Z</time>
      </trkpt>
      <trkpt lat="49.04055199585855" lon="6.874775961041451">
        <ele>225.56999999999999</ele>
        <time>2012-02-14T09:34:54Z</time>
      </trkpt>
      <trkpt lat="49.040642017498612" lon="6.874719969928265">
        <ele>228.44999999999999</ele>
        <time>2012-02-14T09:35:03Z</time>
      </trkpt>
      <trkpt lat="49.040881991386414" lon="6.874649981036782">
        <ele>229.88999999999999</ele>
        <time>2012-02-14T09:35:22Z</time>
      </trkpt>
      <trkpt lat="49.041005037724972" lon="6.874639000743628">
        <ele>230.37</ele>
        <time>2012-02-14T09:35:41Z</time>
      </trkpt>
      <trkpt lat="49.041121965274215" lon="6.874711001291871">
        <ele>231.33000000000001</ele>
        <time>2012-02-14T09:36:18Z</time>
      </trkpt>
      <trkpt lat="49.041299996897578" lon="6.875166976824403">
        <ele>232.78</ele>
        <time>2012-02-14T09:36:39Z</time>
      </trkpt>
      <trkpt lat="49.041311983019114" lon="6.875266972929239">
        <ele>233.74000000000001</ele>
        <time>2012-02-14T09:36:43Z</time>
      </trkpt>
      <trkpt lat="49.041366968303919" lon="6.875337967649102">
        <ele>234.22</ele>
        <time>2012-02-14T09:36:48Z</time>
      </trkpt>
      <trkpt lat="49.041382977738976" lon="6.875366969034076">
        <ele>233.25999999999999</ele>
        <time>2012-02-14T09:36:49Z</time>
      </trkpt>
      <trkpt lat="49.041393036022782" lon="6.87539697624743">
        <ele>234.22</ele>
        <time>2012-02-14T09:36:51Z</time>
      </trkpt>
      <trkpt lat="49.041498983278871" lon="6.875643990933895">
        <ele>233.74000000000001</ele>
        <time>2012-02-14T09:37:08Z</time>
      </trkpt>
      <trkpt lat="49.041547011584044" lon="6.875938028097153">
        <ele>233.74000000000001</ele>
        <time>2012-02-14T09:37:29Z</time>
      </trkpt>
      <trkpt lat="49.04158397577703" lon="6.876283027231693">
        <ele>234.22</ele>
        <time>2012-02-14T09:37:47Z</time>
      </trkpt>
      <trkpt lat="49.041624963283539" lon="6.876687034964562">
        <ele>235.18000000000001</ele>
        <time>2012-02-14T09:38:02Z</time>
      </trkpt>
      <trkpt lat="49.041680032387376" lon="6.876956010237336">
        <ele>234.69999999999999</ele>
        <time>2012-02-14T09:38:18Z</time>
      </trkpt>
      <trkpt lat="49.041684977710247" lon="6.87726303935051">
        <ele>233.74000000000001</ele>
        <time>2012-02-14T09:38:33Z</time>
      </trkpt>
      <trkpt lat="49.041673997417092" lon="6.877284999936819">
        <ele>233.74000000000001</ele>
        <time>2012-02-14T09:38:34Z</time>
      </trkpt>
      <trkpt lat="49.041641978546977" lon="6.877469988539815">
        <ele>235.18000000000001</ele>
        <time>2012-02-14T09:38:47Z</time>
      </trkpt>
      <trkpt lat="49.041651031002402" lon="6.877632010728121">
        <ele>235.18000000000001</ele>
        <time>2012-02-14T09:39:01Z</time>
      </trkpt>
      <trkpt lat="49.041704004630446" lon="6.877827979624271">
        <ele>236.62</ele>
        <time>2012-02-14T09:39:15Z</time>
      </trkpt>
      <trkpt lat="49.041681960225105" lon="6.878002993762493">
        <ele>235.18000000000001</ele>
        <time>2012-02-14T09:39:21Z</time>
      </trkpt>
      <trkpt lat="49.041710961610079" lon="6.878264006227255">
        <ele>236.13999999999999</ele>
        <time>2012-02-14T09:39:34Z</time>
      </trkpt>
      <trkpt lat="49.041814981028438" lon="6.878654016181827">
        <ele>239.50999999999999</ele>
        <time>2012-02-14T09:39:55Z</time>
      </trkpt>
      <trkpt lat="49.041840964928269" lon="6.878932965919375">
        <ele>239.02000000000001</ele>
        <time>2012-02-14T09:40:15Z</time>
      </trkpt>
      <trkpt lat="49.041878012940288" lon="6.879132958129048">
        <ele>240.47</ele>
        <time>2012-02-14T09:40:24Z</time>
      </trkpt>
      <trkpt lat="49.041989995166659" lon="6.879698988050222">
        <ele>240.47</ele>
        <time>2012-02-14T09:40:45Z</time>
      </trkpt>
      <trkpt lat="49.041996030136943" lon="6.879710974171758">
        <ele>238.53999999999999</ele>
        <time>2012-02-14T09:40:46Z</time>
      </trkpt>
      <trkpt lat="49.041974991559982" lon="6.879986990243197">
        <ele>239.99000000000001</ele>
        <time>2012-02-14T09:41:00Z</time>
      </trkpt>
      <trkpt lat="49.041935009881854" lon="6.880349004641175">
        <ele>239.99000000000001</ele>
        <time>2012-02-14T09:41:13Z</time>
      </trkpt>
      <trkpt lat="49.041909025982022" lon="6.880471967160702">
        <ele>239.02000000000001</ele>
        <time>2012-02-14T09:41:25Z</time>
      </trkpt>
      <trkpt lat="49.041815986856818" lon="6.880530975759029">
        <ele>239.99000000000001</ele>
        <time>2012-02-14T09:41:30Z</time>
      </trkpt>
      <trkpt lat="49.041695035994053" lon="6.880572969093919">
        <ele>237.09999999999999</ele>
        <time>2012-02-14T09:41:37Z</time>
      </trkpt>
      <trkpt lat="49.041532007977366" lon="6.880653016269207">
        <ele>234.69999999999999</ele>
        <time>2012-02-14T09:41:50Z</time>
      </trkpt>
      <trkpt lat="49.041348025202751" lon="6.880697021260858">
        <ele>233.25999999999999</ele>
        <time>2012-02-14T09:42:00Z</time>
      </trkpt>
      <trkpt lat="49.041149038821459" lon="6.880801962688565">
        <ele>230.84999999999999</ele>
        <time>2012-02-14T09:42:15Z</time>
      </trkpt>
      <trkpt lat="49.041120037436485" lon="6.880809003487229">
        <ele>230.37</ele>
        <time>2012-02-14T09:42:17Z</time>
      </trkpt>
      <trkpt lat="49.041075026616454" lon="6.880799029022455">
        <ele>228.93000000000001</ele>
        <time>2012-02-14T09:42:21Z</time>
      </trkpt>
      <trkpt lat="49.040964972227812" lon="6.880798023194075">
        <ele>227.97</ele>
        <time>2012-02-14T09:42:29Z</time>
      </trkpt>
      <trkpt lat="49.040820971131325" lon="6.880836999043822">
        <ele>227.97</ele>
        <time>2012-02-14T09:42:39Z</time>
      </trkpt>
      <trkpt lat="49.040694991126657" lon="6.880860971286893">
        <ele>225.56999999999999</ele>
        <time>2012-02-14T09:42:48Z</time>
      </trkpt>
      <trkpt lat="49.040518971160054" lon="6.880899025127292">
        <ele>225.09</ele>
        <time>2012-02-14T09:43:00Z</time>
      </trkpt>
      <trkpt lat="49.040499022230506" lon="6.880898019298911">
        <ele>224.12</ele>
        <time>2012-02-14T09:43:02Z</time>
      </trkpt>
      <trkpt lat="49.040367007255554" lon="6.880862982943654">
        <ele>224.12</ele>
        <time>2012-02-14T09:43:17Z</time>
      </trkpt>
      <trkpt lat="49.040214959532022" lon="6.880811015143991">
        <ele>225.56999999999999</ele>
        <time>2012-02-14T09:43:30Z</time>
      </trkpt>
      <trkpt lat="49.040209008380771" lon="6.880841022357345">
        <ele>224.61000000000001</ele>
        <time>2012-02-14T09:43:40Z</time>
      </trkpt>
      <trkpt lat="49.040147988125682" lon="6.880884021520615">
        <ele>225.09</ele>
        <time>2012-02-14T09:43:44Z</time>
      </trkpt>
      <trkpt lat="49.04009803198278" lon="6.880899025127292">
        <ele>224.61000000000001</ele>
        <time>2012-02-14T09:43:48Z</time>
      </trkpt>
      <trkpt lat="49.040081016719341" lon="6.880904976278544">
        <ele>225.56999999999999</ele>
        <time>2012-02-14T09:43:49Z</time>
      </trkpt>
      <trkpt lat="49.040071964263916" lon="6.88091897405684">
        <ele>225.56999999999999</ele>
        <time>2012-02-14T09:44:01Z</time>
      </trkpt>
      <trkpt lat="49.040114041417837" lon="6.880949987098575">
        <ele>225.56999999999999</ele>
        <time>2012-02-14T09:44:42Z</time>
      </trkpt>
      <trkpt lat="49.040114041417837" lon="6.880949987098575">
        <ele>225.09</ele>
        <time>2012-02-14T09:44:47Z</time>
      </trkpt>
      <trkpt lat="49.040000969544053" lon="6.880969014018774">
        <ele>226.05000000000001</ele>
        <time>2012-02-14T09:45:00Z</time>
      </trkpt>
      <trkpt lat="49.039953025057912" lon="6.880964990705252">
        <ele>226.05000000000001</ele>
        <time>2012-02-14T09:45:05Z</time>
      </trkpt>
      <trkpt lat="49.039935003966093" lon="6.880973959341645">
        <ele>224.61000000000001</ele>
        <time>2012-02-14T09:45:07Z</time>
      </trkpt>
      <trkpt lat="49.039901979267597" lon="6.880975970998406">
        <ele>225.56999999999999</ele>
        <time>2012-02-14T09:45:09Z</time>
      </trkpt>
      <trkpt lat="49.039810029789805" lon="6.880996003746986">
        <ele>226.53</ele>
        <time>2012-02-14T09:45:17Z</time>
      </trkpt>
      <trkpt lat="49.039795026183128" lon="6.880994997918606">
        <ele>225.09</ele>
        <time>2012-02-14T09:45:18Z</time>
      </trkpt>
      <trkpt lat="49.039759989827871" lon="6.880997009575367">
        <ele>225.56999999999999</ele>
        <time>2012-02-14T09:45:20Z</time>
      </trkpt>
      <trkpt lat="49.039538959041238" lon="6.881094994023442">
        <ele>226.05000000000001</ele>
        <time>2012-02-14T09:45:35Z</time>
      </trkpt>
      <trkpt lat="49.039486991241574" lon="6.881129024550319">
        <ele>225.09</ele>
        <time>2012-02-14T09:45:39Z</time>
      </trkpt>
      <trkpt lat="49.039263026788831" lon="6.881208987906575">
        <ele>227.49000000000001</ele>
        <time>2012-02-14T09:45:56Z</time>
      </trkpt>
      <trkpt lat="49.039119025692344" lon="6.881278976798058">
        <ele>229.41</ele>
        <time>2012-02-14T09:46:14Z</time>
      </trkpt>
      <trkpt lat="49.039168981835246" lon="6.881370004266501">
        <ele>228.44999999999999</ele>
        <time>2012-02-14T09:46:31Z</time>
      </trkpt>
      <trkpt lat="49.039156995713711" lon="6.881379978731275">
        <ele>228.93000000000001</ele>
        <time>2012-02-14T09:46:32Z</time>
      </trkpt>
      <trkpt lat="49.039131011813879" lon="6.881413003429771">
        <ele>227.97</ele>
        <time>2012-02-14T09:46:34Z</time>
      </trkpt>
      <trkpt lat="49.039115002378821" lon="6.881449967622757">
        <ele>228.93000000000001</ele>
        <time>2012-02-14T09:46:37Z</time>
      </trkpt>
      <trkpt lat="49.039116008207202" lon="6.881571002304554">
        <ele>230.37</ele>
        <time>2012-02-14T09:46:46Z</time>
      </trkpt>
      <trkpt lat="49.03911299072206" lon="6.881655994802713">
        <ele>232.30000000000001</ele>
        <time>2012-02-14T09:46:52Z</time>
      </trkpt>
      <trkpt lat="49.039140986278653" lon="6.881812987849116">
        <ele>232.78</ele>
        <time>2012-02-14T09:47:01Z</time>
      </trkpt>
      <trkpt lat="49.039166970178485" lon="6.881933016702533">
        <ele>232.78</ele>
        <time>2012-02-14T09:47:08Z</time>
      </trkpt>
      <trkpt lat="49.039222039282322" lon="6.882105013355613">
        <ele>232.78</ele>
        <time>2012-02-14T09:47:19Z</time>
      </trkpt>
      <trkpt lat="49.039251962676644" lon="6.882182965055108">
        <ele>231.33000000000001</ele>
        <time>2012-02-14T09:47:26Z</time>
      </trkpt>
      <trkpt lat="49.039266966283321" lon="6.882211966440082">
        <ele>232.78</ele>
        <time>2012-02-14T09:47:28Z</time>
      </trkpt>
      <trkpt lat="49.039350030943751" lon="6.882387986406684">
        <ele>232.30000000000001</ele>
        <time>2012-02-14T09:47:38Z</time>
      </trkpt>
      <trkpt lat="49.039446003735065" lon="6.882525030523539">
        <ele>232.78</ele>
        <time>2012-02-14T09:47:45Z</time>
      </trkpt>
      <trkpt lat="49.039471987634897" lon="6.88263600692153">
        <ele>232.30000000000001</ele>
        <time>2012-02-14T09:47:49Z</time>
      </trkpt>
      <trkpt lat="49.039495959877968" lon="6.882828958332539">
        <ele>232.30000000000001</ele>
        <time>2012-02-14T09:48:00Z</time>
      </trkpt>
      <trkpt lat="49.039543988183141" lon="6.883070021867752">
        <ele>232.30000000000001</ele>
        <time>2012-02-14T09:48:14Z</time>
      </trkpt>
      <trkpt lat="49.039549017325044" lon="6.883097011595964">
        <ele>231.33000000000001</ele>
        <time>2012-02-14T09:48:16Z</time>
      </trkpt>
      <trkpt lat="49.039581958204508" lon="6.883176974952221">
        <ele>231.81</ele>
        <time>2012-02-14T09:48:20Z</time>
      </trkpt>
      <trkpt lat="49.039593022316694" lon="6.883205976337194">
        <ele>229.88999999999999</ele>
        <time>2012-02-14T09:48:21Z</time>
      </trkpt>
      <trkpt lat="49.03966804035008" lon="6.883392976596952">
        <ele>232.30000000000001</ele>
        <time>2012-02-14T09:48:29Z</time>
      </trkpt>
      <trkpt lat="49.039745992049575" lon="6.883717020973563">
        <ele>232.30000000000001</ele>
        <time>2012-02-14T09:48:43Z</time>
      </trkpt>
      <trkpt lat="49.039768036454916" lon="6.883777035400271">
        <ele>232.30000000000001</ele>
        <time>2012-02-14T09:48:47Z</time>
      </trkpt>
      <trkpt lat="49.039789997041225" lon="6.883845012634993">
        <ele>232.78</ele>
        <time>2012-02-14T09:48:51Z</time>
      </trkpt>
      <trkpt lat="49.039858980104327" lon="6.883998988196254">
        <ele>233.74000000000001</ele>
        <time>2012-02-14T09:49:05Z</time>
      </trkpt>
      <trkpt lat="49.039893010631204" lon="6.884114993736148">
        <ele>231.81</ele>
        <time>2012-02-14T09:49:14Z</time>
      </trkpt>
      <trkpt lat="49.039940033107996" lon="6.884189005941153">
        <ele>231.81</ele>
        <time>2012-02-14T09:49:17Z</time>
      </trkpt>
      <trkpt lat="49.03999300673604" lon="6.884358990937471">
        <ele>233.74000000000001</ele>
        <time>2012-02-14T09:49:25Z</time>
      </trkpt>
      <trkpt lat="49.040001975372434" lon="6.884391009807587">
        <ele>232.30000000000001</ele>
        <time>2012-02-14T09:49:27Z</time>
      </trkpt>
      <trkpt lat="49.040003987029195" lon="6.884448006749153">
        <ele>232.30000000000001</ele>
        <time>2012-02-14T09:49:33Z</time>
      </trkpt>
      <trkpt lat="49.040126027539372" lon="6.884601982310414">
        <ele>231.81</ele>
        <time>2012-02-14T09:49:42Z</time>
      </trkpt>
      <trkpt lat="49.040157962590456" lon="6.884638024494052">
        <ele>229.88999999999999</ele>
        <time>2012-02-14T09:49:44Z</time>
      </trkpt>
      <trkpt lat="49.040216971188784" lon="6.884738020598888">
        <ele>231.81</ele>
        <time>2012-02-14T09:49:49Z</time>
      </trkpt>
      <trkpt lat="49.040277991443872" lon="6.884905993938446">
        <ele>230.37</ele>
        <time>2012-02-14T09:50:00Z</time>
      </trkpt>
      <trkpt lat="49.040343035012484" lon="6.885068016126752">
        <ele>230.84999999999999</ele>
        <time>2012-02-14T09:50:07Z</time>
      </trkpt>
      <trkpt lat="49.040429033339024" lon="6.885274965316057">
        <ele>229.88999999999999</ele>
        <time>2012-02-14T09:50:19Z</time>
      </trkpt>
      <trkpt lat="49.04044303111732" lon="6.885297009721398">
        <ele>230.37</ele>
        <time>2012-02-14T09:50:22Z</time>
      </trkpt>
      <trkpt lat="49.040548978373408" lon="6.885478980839253">
        <ele>230.37</ele>
        <time>2012-02-14T09:50:33Z</time>
      </trkpt>
      <trkpt lat="49.040560964494944" lon="6.885490966960788">
        <ele>230.84999999999999</ele>
        <time>2012-02-14T09:50:34Z</time>
      </trkpt>
      <trkpt lat="49.040656015276909" lon="6.885615019127727">
        <ele>230.37</ele>
        <time>2012-02-14T09:50:44Z</time>
      </trkpt>
      <trkpt lat="49.040675964206457" lon="6.885663969442248">
        <ele>230.37</ele>
        <time>2012-02-14T09:50:47Z</time>
      </trkpt>
      <trkpt lat="49.040827006101608" lon="6.885898998007178">
        <ele>230.37</ele>
        <time>2012-02-14T09:51:00Z</time>
      </trkpt>
      <trkpt lat="49.040877968072891" lon="6.886056996881962">
        <ele>229.41</ele>
        <time>2012-02-14T09:51:10Z</time>
      </trkpt>
      <trkpt lat="49.041018029674888" lon="6.886197980493307">
        <ele>230.84999999999999</ele>
        <time>2012-02-14T09:51:18Z</time>
      </trkpt>
      <trkpt lat="49.041060023009777" lon="6.88624600879848">
        <ele>230.84999999999999</ele>
        <time>2012-02-14T09:51:21Z</time>
      </trkpt>
      <trkpt lat="49.041102016344666" lon="6.886323960497975">
        <ele>230.37</ele>
        <time>2012-02-14T09:51:28Z</time>
      </trkpt>
      <trkpt lat="49.041307959705591" lon="6.886558989062905">
        <ele>229.88999999999999</ele>
        <time>2012-02-14T09:51:42Z</time>
      </trkpt>
      <trkpt lat="49.041315000504255" lon="6.886595031246543">
        <ele>228.93000000000001</ele>
        <time>2012-02-14T09:51:44Z</time>
      </trkpt>
      <trkpt lat="49.041308965533972" lon="6.886672982946038">
        <ele>230.84999999999999</ele>
        <time>2012-02-14T09:51:48Z</time>
      </trkpt>
      <trkpt lat="49.041463024914265" lon="6.886874986812472">
        <ele>229.88999999999999</ele>
        <time>2012-02-14T09:52:01Z</time>
      </trkpt>
      <trkpt lat="49.041526978835464" lon="6.887014964595437">
        <ele>229.41</ele>
        <time>2012-02-14T09:52:13Z</time>
      </trkpt>
      <trkpt lat="49.041544999927282" lon="6.887259967625141">
        <ele>229.41</ele>
        <time>2012-02-14T09:52:29Z</time>
      </trkpt>
      <trkpt lat="49.04169000685215" lon="6.887387037277222">
        <ele>228.44999999999999</ele>
        <time>2012-02-14T09:52:40Z</time>
      </trkpt>
      <trkpt lat="49.041788997128606" lon="6.887505976483226">
        <ele>228.93000000000001</ele>
        <time>2012-02-14T09:52:48Z</time>
      </trkpt>
      <trkpt lat="49.041816992685199" lon="6.88753598369658">
        <ele>227.97</ele>
        <time>2012-02-14T09:52:50Z</time>
      </trkpt>
      <trkpt lat="49.041894022375345" lon="6.887620976194739">
        <ele>229.41</ele>
        <time>2012-02-14T09:52:58Z</time>
      </trkpt>
      <trkpt lat="49.042022014036775" lon="6.887741005048156">
        <ele>227.49000000000001</ele>
        <time>2012-02-14T09:53:08Z</time>
      </trkpt>
      <trkpt lat="49.042087979614735" lon="6.887848963961005">
        <ele>227.00999999999999</ele>
        <time>2012-02-14T09:53:17Z</time>
      </trkpt>
      <trkpt lat="49.042026037350297" lon="6.888040993362665">
        <ele>229.41</ele>
        <time>2012-02-14T09:53:27Z</time>
      </trkpt>
      <trkpt lat="49.042022014036775" lon="6.888279961422086">
        <ele>231.33000000000001</ele>
        <time>2012-02-14T09:53:42Z</time>
      </trkpt>
      <trkpt lat="49.042028971016407" lon="6.88847903162241">
        <ele>232.78</ele>
        <time>2012-02-14T09:53:55Z</time>
      </trkpt>
      <trkpt lat="49.042032994329929" lon="6.888495041057468">
        <ele>231.33000000000001</ele>
        <time>2012-02-14T09:53:56Z</time>
      </trkpt>
      <trkpt lat="49.042039029300213" lon="6.888539968058467">
        <ele>233.25999999999999</ele>
        <time>2012-02-14T09:53:59Z</time>
      </trkpt>
      <trkpt lat="49.042047997936606" lon="6.888578021898866">
        <ele>231.33000000000001</ele>
        <time>2012-02-14T09:54:01Z</time>
      </trkpt>
      <trkpt lat="49.042056966573" lon="6.888757981359959">
        <ele>234.69999999999999</ele>
        <time>2012-02-14T09:54:13Z</time>
      </trkpt>
      <trkpt lat="49.042095020413399" lon="6.889012036845088">
        <ele>235.66</ele>
        <time>2012-02-14T09:54:26Z</time>
      </trkpt>
      <trkpt lat="49.042110024020076" lon="6.889197025448084">
        <ele>234.69999999999999</ele>
        <time>2012-02-14T09:54:36Z</time>
      </trkpt>
      <trkpt lat="49.042094014585018" lon="6.889299033209682">
        <ele>234.22</ele>
        <time>2012-02-14T09:54:42Z</time>
      </trkpt>
      <trkpt lat="49.04209703207016" lon="6.889316970482469">
        <ele>235.18000000000001</ele>
        <time>2012-02-14T09:54:43Z</time>
      </trkpt>
      <trkpt lat="49.042075993493199" lon="6.889396011829376">
        <ele>233.25999999999999</ele>
        <time>2012-02-14T09:54:49Z</time>
      </trkpt>
      <trkpt lat="49.04211999848485" lon="6.889581000432372">
        <ele>234.22</ele>
        <time>2012-02-14T09:54:59Z</time>
      </trkpt>
      <trkpt lat="49.042127961292863" lon="6.889610001817346">
        <ele>234.22</ele>
        <time>2012-02-14T09:55:01Z</time>
      </trkpt>
      <trkpt lat="49.042128967121243" lon="6.889692982658744">
        <ele>233.25999999999999</ele>
        <time>2012-02-14T09:55:05Z</time>
      </trkpt>
      <trkpt lat="49.042129972949624" lon="6.889815023168922">
        <ele>232.78</ele>
        <time>2012-02-14T09:55:11Z</time>
      </trkpt>
      <trkpt lat="49.04214296489954" lon="6.88987897709012">
        <ele>234.22</ele>
        <time>2012-02-14T09:55:14Z</time>
      </trkpt>
      <trkpt lat="49.042165009304881" lon="6.890045022591949">
        <ele>233.74000000000001</ele>
        <time>2012-02-14T09:55:22Z</time>
      </trkpt>
      <trkpt lat="49.042171966284513" lon="6.890102019533515">
        <ele>235.18000000000001</ele>
        <time>2012-02-14T09:55:26Z</time>
      </trkpt>
      <trkpt lat="49.042222006246448" lon="6.890237974002957">
        <ele>235.66</ele>
        <time>2012-02-14T09:55:35Z</time>
      </trkpt>
      <trkpt lat="49.042242038995028" lon="6.890318021178246">
        <ele>234.69999999999999</ele>
        <time>2012-02-14T09:55:38Z</time>
      </trkpt>
      <trkpt lat="49.042219994589686" lon="6.890367977321148">
        <ele>235.66</ele>
        <time>2012-02-14T09:55:41Z</time>
      </trkpt>
      <trkpt lat="49.04224899597466" lon="6.890698978677392">
        <ele>234.69999999999999</ele>
        <time>2012-02-14T09:55:57Z</time>
      </trkpt>
      <trkpt lat="49.042247990146279" lon="6.890959991142154">
        <ele>236.13999999999999</ele>
        <time>2012-02-14T09:56:11Z</time>
      </trkpt>
      <trkpt lat="49.042266011238098" lon="6.89116501249373">
        <ele>235.66</ele>
        <time>2012-02-14T09:56:23Z</time>
      </trkpt>
      <trkpt lat="49.042318984866142" lon="6.891475981101394">
        <ele>236.62</ele>
        <time>2012-02-14T09:56:38Z</time>
      </trkpt>
      <trkpt lat="49.042332982644439" lon="6.891560973599553">
        <ele>236.62</ele>
        <time>2012-02-14T09:56:42Z</time>
      </trkpt>
      <trkpt lat="49.042343040928245" lon="6.891792984679341">
        <ele>236.62</ele>
        <time>2012-02-14T09:56:51Z</time>
      </trkpt>
      <trkpt lat="49.042353015393019" lon="6.891829026862979">
        <ele>235.18000000000001</ele>
        <time>2012-02-14T09:56:53Z</time>
      </trkpt>
      <trkpt lat="49.04235796071589" lon="6.891893986612558">
        <ele>236.62</ele>
        <time>2012-02-14T09:56:56Z</time>
      </trkpt>
      <trkpt lat="49.042367013171315" lon="6.892018038779497">
        <ele>236.13999999999999</ele>
        <time>2012-02-14T09:57:01Z</time>
      </trkpt>
      <trkpt lat="49.042341029271483" lon="6.892203027382493">
        <ele>236.62</ele>
        <time>2012-02-14T09:57:14Z</time>
      </trkpt>
      <trkpt lat="49.042346980422735" lon="6.892248960211873">
        <ele>236.13999999999999</ele>
        <time>2012-02-14T09:57:17Z</time>
      </trkpt>
      <trkpt lat="49.042395008727908" lon="6.892528999596834">
        <ele>235.18000000000001</ele>
        <time>2012-02-14T09:57:33Z</time>
      </trkpt>
      <trkpt lat="49.042396014556289" lon="6.892622960731387">
        <ele>235.66</ele>
        <time>2012-02-14T09:57:38Z</time>
      </trkpt>
      <trkpt lat="49.042387967929244" lon="6.892837034538388">
        <ele>233.74000000000001</ele>
        <time>2012-02-14T09:57:51Z</time>
      </trkpt>
      <trkpt lat="49.042452005669475" lon="6.893138028681278">
        <ele>234.22</ele>
        <time>2012-02-14T09:58:09Z</time>
      </trkpt>
      <trkpt lat="49.042462985962629" lon="6.893182033672929">
        <ele>235.18000000000001</ele>
        <time>2012-02-14T09:58:11Z</time>
      </trkpt>
      <trkpt lat="49.042477989569306" lon="6.893333997577429">
        <ele>235.66</ele>
        <time>2012-02-14T09:58:17Z</time>
      </trkpt>
      <trkpt lat="49.042475977912545" lon="6.893368028104305">
        <ele>235.66</ele>
        <time>2012-02-14T09:58:19Z</time>
      </trkpt>
      <trkpt lat="49.042461980134249" lon="6.893408009782434">
        <ele>235.18000000000001</ele>
        <time>2012-02-14T09:58:22Z</time>
      </trkpt>
      <trkpt lat="49.042573040351272" lon="6.893542958423495">
        <ele>235.18000000000001</ele>
        <time>2012-02-14T09:58:36Z</time>
      </trkpt>
      <trkpt lat="49.042586032301188" lon="6.893543964251876">
        <ele>234.22</ele>
        <time>2012-02-14T09:58:37Z</time>
      </trkpt>
      <trkpt lat="49.042675970122218" lon="6.893532983958721">
        <ele>234.69999999999999</ele>
        <time>2012-02-14T09:58:43Z</time>
      </trkpt>
      <trkpt lat="49.042819971218705" lon="6.893525021150708">
        <ele>232.30000000000001</ele>
        <time>2012-02-14T09:58:55Z</time>
      </trkpt>
      <trkpt lat="49.042920973151922" lon="6.893500965088606">
        <ele>232.30000000000001</ele>
        <time>2012-02-14T09:59:03Z</time>
      </trkpt>
      <trkpt lat="49.042945029214025" lon="6.893527032807469">
        <ele>230.84999999999999</ele>
        <time>2012-02-14T09:59:06Z</time>
      </trkpt>
      <trkpt lat="49.043017029762268" lon="6.893533989787102">
        <ele>229.88999999999999</ele>
        <time>2012-02-14T09:59:11Z</time>
      </trkpt>
      <trkpt lat="49.043167987838387" lon="6.893531978130341">
        <ele>230.37</ele>
        <time>2012-02-14T09:59:25Z</time>
      </trkpt>
      <trkpt lat="49.043290028348565" lon="6.893389988690615">
        <ele>230.37</ele>
        <time>2012-02-14T09:59:35Z</time>
      </trkpt>
      <trkpt lat="49.04330100864172" lon="6.893368028104305">
        <ele>229.88999999999999</ele>
        <time>2012-02-14T09:59:36Z</time>
      </trkpt>
      <trkpt lat="49.043311988934875" lon="6.893257973715663">
        <ele>228.93000000000001</ele>
        <time>2012-02-14T09:59:44Z</time>
      </trkpt>
      <trkpt lat="49.043405028060079" lon="6.893167030066252">
        <ele>229.88999999999999</ele>
        <time>2012-02-14T09:59:53Z</time>
      </trkpt>
      <trkpt lat="49.04340997338295" lon="6.893178010359407">
        <ele>229.88999999999999</ele>
        <time>2012-02-14T09:59:54Z</time>
      </trkpt>
      <trkpt lat="49.043501000851393" lon="6.8931869789958">
        <ele>230.84999999999999</ele>
        <time>2012-02-14T10:00:04Z</time>
      </trkpt>
      <trkpt lat="49.043608037754893" lon="6.893184967339039">
        <ele>229.88999999999999</ele>
        <time>2012-02-14T10:00:15Z</time>
      </trkpt>
      <trkpt lat="49.043677020817995" lon="6.893223021179438">
        <ele>228.93000000000001</ele>
        <time>2012-02-14T10:00:21Z</time>
      </trkpt>
      <trkpt lat="49.043764024972916" lon="6.893213968724012">
        <ele>229.88999999999999</ele>
        <time>2012-02-14T10:00:28Z</time>
      </trkpt>
      <trkpt lat="49.043901991099119" lon="6.893197037279606">
        <ele>228.93000000000001</ele>
        <time>2012-02-14T10:00:39Z</time>
      </trkpt>
      <trkpt lat="49.043949013575912" lon="6.893210029229522">
        <ele>230.37</ele>
        <time>2012-02-14T10:00:43Z</time>
      </trkpt>
      <trkpt lat="49.044129978865385" lon="6.893209023401141">
        <ele>228.44999999999999</ele>
        <time>2012-02-14T10:00:59Z</time>
      </trkpt>
      <trkpt lat="49.044286971911788" lon="6.893202988430858">
        <ele>229.41</ele>
        <time>2012-02-14T10:01:12Z</time>
      </trkpt>
      <trkpt lat="49.044373976066709" lon="6.893180022016168">
        <ele>229.41</ele>
        <time>2012-02-14T10:01:18Z</time>
      </trkpt>
      <trkpt lat="49.044554019346833" lon="6.893200976774097">
        <ele>229.88999999999999</ele>
        <time>2012-02-14T10:01:35Z</time>
      </trkpt>
      <trkpt lat="49.044686034321785" lon="6.893216986209154">
        <ele>229.41</ele>
        <time>2012-02-14T10:01:47Z</time>
      </trkpt>
      <trkpt lat="49.044739007949829" lon="6.893200976774097">
        <ele>230.37</ele>
        <time>2012-02-14T10:01:52Z</time>
      </trkpt>
      <trkpt lat="49.044759040698409" lon="6.893200976774097">
        <ele>230.84999999999999</ele>
        <time>2012-02-14T10:01:54Z</time>
      </trkpt>
      <trkpt lat="49.044808996841311" lon="6.893201982602477">
        <ele>229.88999999999999</ele>
        <time>2012-02-14T10:01:58Z</time>
      </trkpt>
      <trkpt lat="49.044866999611259" lon="6.893192008137703">
        <ele>228.93000000000001</ele>
        <time>2012-02-14T10:02:03Z</time>
      </trkpt>
      <trkpt lat="49.045036984607577" lon="6.893171975389123">
        <ele>228.44999999999999</ele>
        <time>2012-02-14T10:02:17Z</time>
      </trkpt>
      <trkpt lat="49.045259021222591" lon="6.893193013966084">
        <ele>229.88999999999999</ele>
        <time>2012-02-14T10:02:34Z</time>
      </trkpt>
      <trkpt lat="49.04540897347033" lon="6.893215980380774">
        <ele>228.44999999999999</ele>
        <time>2012-02-14T10:02:48Z</time>
      </trkpt>
      <trkpt lat="49.045549035072327" lon="6.893180022016168">
        <ele>228.93000000000001</ele>
        <time>2012-02-14T10:03:01Z</time>
      </trkpt>
      <trkpt lat="49.045576024800539" lon="6.893187984824181">
        <ele>229.88999999999999</ele>
        <time>2012-02-14T10:03:03Z</time>
      </trkpt>
      <trkpt lat="49.045725977048278" lon="6.893183039501309">
        <ele>228.44999999999999</ele>
        <time>2012-02-14T10:03:14Z</time>
      </trkpt>
      <trkpt lat="49.045756990090013" lon="6.893187984824181">
        <ele>229.88999999999999</ele>
        <time>2012-02-14T10:03:18Z</time>
      </trkpt>
      <trkpt lat="49.045975003391504" lon="6.893182033672929">
        <ele>229.88999999999999</ele>
        <time>2012-02-14T10:03:34Z</time>
      </trkpt>
      <trkpt lat="49.046040968969464" lon="6.893205000087619">
        <ele>229.88999999999999</ele>
        <time>2012-02-14T10:03:41Z</time>
      </trkpt>
      <trkpt lat="49.046039963141084" lon="6.893108021467924">
        <ele>229.41</ele>
        <time>2012-02-14T10:03:49Z</time>
      </trkpt>
      <trkpt lat="49.046033006161451" lon="6.893002996221185">
        <ele>229.41</ele>
        <time>2012-02-14T10:03:56Z</time>
      </trkpt>
      <trkpt lat="49.046061001718044" lon="6.892835022881627">
        <ele>229.41</ele>
        <time>2012-02-14T10:04:09Z</time>
      </trkpt>
      <trkpt lat="49.046071982011199" lon="6.892780959606171">
        <ele>227.97</ele>
        <time>2012-02-14T10:04:12Z</time>
      </trkpt>
      <trkpt lat="49.046078016981483" lon="6.892763022333384">
        <ele>228.93000000000001</ele>
        <time>2012-02-14T10:04:13Z</time>
      </trkpt>
      <trkpt lat="49.04624599032104" lon="6.892556995153427">
        <ele>227.97</ele>
        <time>2012-02-14T10:04:29Z</time>
      </trkpt>
      <trkpt lat="49.046283038333058" lon="6.892554983496666">
        <ele>229.41</ele>
        <time>2012-02-14T10:04:34Z</time>
      </trkpt>
      <trkpt lat="49.046442965045571" lon="6.892581973224878">
        <ele>228.44999999999999</ele>
        <time>2012-02-14T10:04:45Z</time>
      </trkpt>
      <trkpt lat="49.04652401804924" lon="6.892571998760104">
        <ele>228.44999999999999</ele>
        <time>2012-02-14T10:04:53Z</time>
      </trkpt>
      <trkpt lat="49.04671797528863" lon="6.89269102178514">
        <ele>228.93000000000001</ele>
        <time>2012-02-14T10:05:13Z</time>
      </trkpt>
      <trkpt lat="49.046747982501984" lon="6.892685992643237">
        <ele>227.97</ele>
        <time>2012-02-14T10:05:16Z</time>
      </trkpt>
      <trkpt lat="49.046801039949059" lon="6.892695967108011">
        <ele>227.97</ele>
        <time>2012-02-14T10:05:22Z</time>
      </trkpt>
      <trkpt lat="49.046882009133697" lon="6.892715999856591">
        <ele>228.44999999999999</ele>
        <time>2012-02-14T10:05:36Z</time>
      </trkpt>
      <trkpt lat="49.046940011903644" lon="6.892727985978127">
        <ele>228.44999999999999</ele>
        <time>2012-02-14T10:05:55Z</time>
      </trkpt>
      <trkpt lat="49.046994997188449" lon="6.892748018726707">
        <ele>227.49000000000001</ele>
        <time>2012-02-14T10:06:18Z</time>
      </trkpt>
      <trkpt lat="49.047002037987113" lon="6.892752964049578">
        <ele>228.93000000000001</ele>
        <time>2012-02-14T10:06:20Z</time>
      </trkpt>
      <trkpt lat="49.047171017155051" lon="6.892806021496654">
        <ele>228.44999999999999</ele>
        <time>2012-02-14T10:06:33Z</time>
      </trkpt>
      <trkpt lat="49.047184009104967" lon="6.892808033153415">
        <ele>229.41</ele>
        <time>2012-02-14T10:06:34Z</time>
      </trkpt>
      <trkpt lat="49.047218039631844" lon="6.892796969041228">
        <ele>227.97</ele>
        <time>2012-02-14T10:06:50Z</time>
      </trkpt>
      <trkpt lat="49.047217033803463" lon="6.892796969041228">
        <ele>228.44999999999999</ele>
        <time>2012-02-14T10:06:56Z</time>
      </trkpt>
      <trkpt lat="49.047250980511308" lon="6.892793029546738">
        <ele>229.88999999999999</ele>
        <time>2012-02-14T10:07:01Z</time>
      </trkpt>
      <trkpt lat="49.047295991331339" lon="6.892720023170114">
        <ele>228.93000000000001</ele>
        <time>2012-02-14T10:07:17Z</time>
      </trkpt>
      <trkpt lat="49.047257015481591" lon="6.892710970714688">
        <ele>228.44999999999999</ele>
        <time>2012-02-14T10:07:26Z</time>
      </trkpt>
      <trkpt lat="49.047259027138352" lon="6.89271298237145">
        <ele>229.88999999999999</ele>
        <time>2012-02-14T10:07:29Z</time>
      </trkpt>
      <trkpt lat="49.047377966344357" lon="6.892640981823206">
        <ele>228.93000000000001</ele>
        <time>2012-02-14T10:07:56Z</time>
      </trkpt>
      <trkpt lat="49.047415014356375" lon="6.892468985170126">
        <ele>230.84999999999999</ele>
        <time>2012-02-14T10:08:05Z</time>
      </trkpt>
      <trkpt lat="49.047437980771065" lon="6.892422968521714">
        <ele>230.84999999999999</ele>
        <time>2012-02-14T10:08:11Z</time>
      </trkpt>
      <trkpt lat="49.047462958842516" lon="6.892363037914038">
        <ele>229.41</ele>
        <time>2012-02-14T10:08:20Z</time>
      </trkpt>
      <trkpt lat="49.047462958842516" lon="6.892337976023555">
        <ele>230.37</ele>
        <time>2012-02-14T10:08:33Z</time>
      </trkpt>
      <trkpt lat="49.047464970499277" lon="6.892348034307361">
        <ele>230.37</ele>
        <time>2012-02-14T10:08:36Z</time>
      </trkpt>
    </trkseg>
  </trk>

</gpx>
